<?xml version="1.0" encoding="UTF-8" standalone="no" ?>
<gpx xmlns="http://www.topografix.com/GPX/1/1" xmlns:xsi="http://www.w3.org/2001/XMLSchema-instance" xsi:schemaLocation="http://www.topografix.com/GPX/1/1 http://www.topografix.com/GPX/1/1/gpx.xsd" version="1.1" creator="VisuGPX - https://www.visugpx.com">
  <metadata>
    <name>Randonnée 16 octobre 2014</name>
    <desc><![CDATA[Randonnée du 16 octobre 2014 à Croix Régis]]></desc>
  </metadata>
  <trk>
    <name><![CDATA[Sequence 1]]></name>
    <trkseg>
      <trkpt lat="45.52214" lon="4.7439">
        <ele>513</ele>
        <time>2014-10-16T12:11:46Z</time>
      </trkpt>
      <trkpt lat="45.52214" lon="4.7439">
        <ele>513</ele>
        <time>2014-10-16T12:11:51Z</time>
      </trkpt>
      <trkpt lat="45.52214" lon="4.7439">
        <ele>513</ele>
        <time>2014-10-16T12:12:02Z</time>
      </trkpt>
      <trkpt lat="45.52211" lon="4.74388">
        <ele>513</ele>
        <time>2014-10-16T12:12:18Z</time>
      </trkpt>
      <trkpt lat="45.52206" lon="4.74389">
        <ele>512</ele>
        <time>2014-10-16T12:12:24Z</time>
      </trkpt>
      <trkpt lat="45.52201" lon="4.74388">
        <ele>510</ele>
        <time>2014-10-16T12:12:38Z</time>
      </trkpt>
      <trkpt lat="45.52202" lon="4.74388">
        <ele>510</ele>
        <time>2014-10-16T12:12:46Z</time>
      </trkpt>
      <trkpt lat="45.52202" lon="4.74388">
        <ele>510</ele>
        <time>2014-10-16T12:12:57Z</time>
      </trkpt>
      <trkpt lat="45.52202" lon="4.74388">
        <ele>510</ele>
        <time>2014-10-16T12:13:14Z</time>
      </trkpt>
      <trkpt lat="45.52202" lon="4.74388">
        <ele>510</ele>
        <time>2014-10-16T12:13:19Z</time>
      </trkpt>
      <trkpt lat="45.52202" lon="4.74388">
        <ele>510</ele>
        <time>2014-10-16T12:13:30Z</time>
      </trkpt>
      <trkpt lat="45.52204" lon="4.74387">
        <ele>509</ele>
        <time>2014-10-16T12:13:41Z</time>
      </trkpt>
      <trkpt lat="45.52204" lon="4.74387">
        <ele>509</ele>
        <time>2014-10-16T12:13:52Z</time>
      </trkpt>
      <trkpt lat="45.52204" lon="4.74386">
        <ele>509</ele>
        <time>2014-10-16T12:14:03Z</time>
      </trkpt>
      <trkpt lat="45.52202" lon="4.74384">
        <ele>508</ele>
        <time>2014-10-16T12:14:14Z</time>
      </trkpt>
      <trkpt lat="45.52182" lon="4.74373">
        <ele>511</ele>
        <time>2014-10-16T12:14:32Z</time>
      </trkpt>
      <trkpt lat="45.52179" lon="4.74371">
        <ele>513</ele>
        <time>2014-10-16T12:14:37Z</time>
      </trkpt>
      <trkpt lat="45.52177" lon="4.74369">
        <ele>508</ele>
        <time>2014-10-16T12:14:53Z</time>
      </trkpt>
      <trkpt lat="45.52179" lon="4.7435">
        <ele>506</ele>
        <time>2014-10-16T12:15:06Z</time>
      </trkpt>
      <trkpt lat="45.52178" lon="4.74336">
        <ele>502</ele>
        <time>2014-10-16T12:15:17Z</time>
      </trkpt>
      <trkpt lat="45.52184" lon="4.74317">
        <ele>504</ele>
        <time>2014-10-16T12:15:30Z</time>
      </trkpt>
      <trkpt lat="45.52183" lon="4.74309">
        <ele>500</ele>
        <time>2014-10-16T12:15:36Z</time>
      </trkpt>
      <trkpt lat="45.52177" lon="4.74304">
        <ele>499</ele>
        <time>2014-10-16T12:15:42Z</time>
      </trkpt>
      <trkpt lat="45.52161" lon="4.74295">
        <ele>502</ele>
        <time>2014-10-16T12:15:59Z</time>
      </trkpt>
      <trkpt lat="45.5216" lon="4.74293">
        <ele>501</ele>
        <time>2014-10-16T12:16:04Z</time>
      </trkpt>
      <trkpt lat="45.52157" lon="4.74289">
        <ele>505</ele>
        <time>2014-10-16T12:16:16Z</time>
      </trkpt>
      <trkpt lat="45.52157" lon="4.74289">
        <ele>505</ele>
        <time>2014-10-16T12:16:26Z</time>
      </trkpt>
      <trkpt lat="45.52145" lon="4.74286">
        <ele>499</ele>
        <time>2014-10-16T12:16:37Z</time>
      </trkpt>
      <trkpt lat="45.52119" lon="4.74269">
        <ele>496</ele>
        <time>2014-10-16T12:16:50Z</time>
      </trkpt>
      <trkpt lat="45.52109" lon="4.74257">
        <ele>501</ele>
        <time>2014-10-16T12:17:00Z</time>
      </trkpt>
      <trkpt lat="45.52095" lon="4.74241">
        <ele>509</ele>
        <time>2014-10-16T12:17:18Z</time>
      </trkpt>
      <trkpt lat="45.52088" lon="4.74234">
        <ele>507</ele>
        <time>2014-10-16T12:17:23Z</time>
      </trkpt>
      <trkpt lat="45.52073" lon="4.74228">
        <ele>509</ele>
        <time>2014-10-16T12:17:32Z</time>
      </trkpt>
      <trkpt lat="45.52067" lon="4.74224">
        <ele>507</ele>
        <time>2014-10-16T12:17:43Z</time>
      </trkpt>
      <trkpt lat="45.52058" lon="4.74214">
        <ele>512</ele>
        <time>2014-10-16T12:18:00Z</time>
      </trkpt>
      <trkpt lat="45.52051" lon="4.74211">
        <ele>511</ele>
        <time>2014-10-16T12:18:06Z</time>
      </trkpt>
      <trkpt lat="45.52036" lon="4.74198">
        <ele>515</ele>
        <time>2014-10-16T12:18:23Z</time>
      </trkpt>
      <trkpt lat="45.52023" lon="4.74181">
        <ele>511</ele>
        <time>2014-10-16T12:18:34Z</time>
      </trkpt>
      <trkpt lat="45.52013" lon="4.74166">
        <ele>511</ele>
        <time>2014-10-16T12:18:48Z</time>
      </trkpt>
      <trkpt lat="45.52012" lon="4.74162">
        <ele>511</ele>
        <time>2014-10-16T12:18:51Z</time>
      </trkpt>
      <trkpt lat="45.52002" lon="4.74155">
        <ele>506</ele>
        <time>2014-10-16T12:19:00Z</time>
      </trkpt>
      <trkpt lat="45.51987" lon="4.74146">
        <ele>506</ele>
        <time>2014-10-16T12:19:13Z</time>
      </trkpt>
      <trkpt lat="45.51979" lon="4.74138">
        <ele>503</ele>
        <time>2014-10-16T12:19:23Z</time>
      </trkpt>
      <trkpt lat="45.5197" lon="4.74141">
        <ele>503</ele>
        <time>2014-10-16T12:19:33Z</time>
      </trkpt>
      <trkpt lat="45.51958" lon="4.74138">
        <ele>504</ele>
        <time>2014-10-16T12:19:44Z</time>
      </trkpt>
      <trkpt lat="45.51941" lon="4.74132">
        <ele>509</ele>
        <time>2014-10-16T12:20:04Z</time>
      </trkpt>
      <trkpt lat="45.51923" lon="4.74126">
        <ele>514</ele>
        <time>2014-10-16T12:20:12Z</time>
      </trkpt>
      <trkpt lat="45.51919" lon="4.74123">
        <ele>514</ele>
        <time>2014-10-16T12:20:19Z</time>
      </trkpt>
      <trkpt lat="45.51911" lon="4.74111">
        <ele>513</ele>
        <time>2014-10-16T12:20:30Z</time>
      </trkpt>
      <trkpt lat="45.51897" lon="4.74117">
        <ele>521</ele>
        <time>2014-10-16T12:20:48Z</time>
      </trkpt>
      <trkpt lat="45.51895" lon="4.74118">
        <ele>522</ele>
        <time>2014-10-16T12:20:51Z</time>
      </trkpt>
      <trkpt lat="45.51885" lon="4.7412">
        <ele>520</ele>
        <time>2014-10-16T12:21:01Z</time>
      </trkpt>
      <trkpt lat="45.51868" lon="4.74116">
        <ele>520</ele>
        <time>2014-10-16T12:21:12Z</time>
      </trkpt>
      <trkpt lat="45.51856" lon="4.74119">
        <ele>518</ele>
        <time>2014-10-16T12:21:23Z</time>
      </trkpt>
      <trkpt lat="45.5185" lon="4.74114">
        <ele>519</ele>
        <time>2014-10-16T12:21:34Z</time>
      </trkpt>
      <trkpt lat="45.51843" lon="4.74111">
        <ele>515</ele>
        <time>2014-10-16T12:21:54Z</time>
      </trkpt>
      <trkpt lat="45.51841" lon="4.74111">
        <ele>515</ele>
        <time>2014-10-16T12:21:56Z</time>
      </trkpt>
      <trkpt lat="45.51833" lon="4.74109">
        <ele>515</ele>
        <time>2014-10-16T12:22:08Z</time>
      </trkpt>
      <trkpt lat="45.51812" lon="4.74106">
        <ele>513</ele>
        <time>2014-10-16T12:22:27Z</time>
      </trkpt>
      <trkpt lat="45.51797" lon="4.74104">
        <ele>512</ele>
        <time>2014-10-16T12:22:32Z</time>
      </trkpt>
      <trkpt lat="45.51767" lon="4.74094">
        <ele>523</ele>
        <time>2014-10-16T12:22:48Z</time>
      </trkpt>
      <trkpt lat="45.51761" lon="4.74093">
        <ele>525</ele>
        <time>2014-10-16T12:22:59Z</time>
      </trkpt>
      <trkpt lat="45.51754" lon="4.74092">
        <ele>526</ele>
        <time>2014-10-16T12:23:04Z</time>
      </trkpt>
      <trkpt lat="45.51724" lon="4.74092">
        <ele>532</ele>
        <time>2014-10-16T12:23:21Z</time>
      </trkpt>
      <trkpt lat="45.5172" lon="4.74093">
        <ele>533</ele>
        <time>2014-10-16T12:23:24Z</time>
      </trkpt>
      <trkpt lat="45.51705" lon="4.74096">
        <ele>528</ele>
        <time>2014-10-16T12:23:43Z</time>
      </trkpt>
      <trkpt lat="45.51703" lon="4.74096">
        <ele>528</ele>
        <time>2014-10-16T12:23:46Z</time>
      </trkpt>
      <trkpt lat="45.51688" lon="4.74093">
        <ele>529</ele>
        <time>2014-10-16T12:24:00Z</time>
      </trkpt>
      <trkpt lat="45.51679" lon="4.74086">
        <ele>525</ele>
        <time>2014-10-16T12:24:14Z</time>
      </trkpt>
      <trkpt lat="45.51677" lon="4.74083">
        <ele>524</ele>
        <time>2014-10-16T12:24:19Z</time>
      </trkpt>
      <trkpt lat="45.51671" lon="4.74081">
        <ele>525</ele>
        <time>2014-10-16T12:24:30Z</time>
      </trkpt>
      <trkpt lat="45.51666" lon="4.74072">
        <ele>521</ele>
        <time>2014-10-16T12:24:51Z</time>
      </trkpt>
      <trkpt lat="45.51665" lon="4.74071">
        <ele>520</ele>
        <time>2014-10-16T12:24:52Z</time>
      </trkpt>
      <trkpt lat="45.51663" lon="4.74067">
        <ele>519</ele>
        <time>2014-10-16T12:25:03Z</time>
      </trkpt>
      <trkpt lat="45.51646" lon="4.74043">
        <ele>520</ele>
        <time>2014-10-16T12:25:19Z</time>
      </trkpt>
      <trkpt lat="45.51637" lon="4.74038">
        <ele>522</ele>
        <time>2014-10-16T12:25:29Z</time>
      </trkpt>
      <trkpt lat="45.51622" lon="4.74039">
        <ele>523</ele>
        <time>2014-10-16T12:25:43Z</time>
      </trkpt>
      <trkpt lat="45.51618" lon="4.74044">
        <ele>522</ele>
        <time>2014-10-16T12:25:47Z</time>
      </trkpt>
      <trkpt lat="45.51617" lon="4.74057">
        <ele>515</ele>
        <time>2014-10-16T12:25:58Z</time>
      </trkpt>
      <trkpt lat="45.51613" lon="4.74077">
        <ele>510</ele>
        <time>2014-10-16T12:26:14Z</time>
      </trkpt>
      <trkpt lat="45.51613" lon="4.74079">
        <ele>510</ele>
        <time>2014-10-16T12:26:20Z</time>
      </trkpt>
      <trkpt lat="45.51608" lon="4.74079">
        <ele>511</ele>
        <time>2014-10-16T12:26:33Z</time>
      </trkpt>
      <trkpt lat="45.51602" lon="4.74073">
        <ele>509</ele>
        <time>2014-10-16T12:26:42Z</time>
      </trkpt>
      <trkpt lat="45.51593" lon="4.74055">
        <ele>506</ele>
        <time>2014-10-16T12:27:02Z</time>
      </trkpt>
      <trkpt lat="45.5158" lon="4.74043">
        <ele>506</ele>
        <time>2014-10-16T12:27:13Z</time>
      </trkpt>
      <trkpt lat="45.51576" lon="4.74038">
        <ele>507</ele>
        <time>2014-10-16T12:27:19Z</time>
      </trkpt>
      <trkpt lat="45.51572" lon="4.74033">
        <ele>503</ele>
        <time>2014-10-16T12:27:26Z</time>
      </trkpt>
      <trkpt lat="45.51562" lon="4.74021">
        <ele>505</ele>
        <time>2014-10-16T12:27:43Z</time>
      </trkpt>
      <trkpt lat="45.51555" lon="4.74018">
        <ele>505</ele>
        <time>2014-10-16T12:27:50Z</time>
      </trkpt>
      <trkpt lat="45.51543" lon="4.74017">
        <ele>494</ele>
        <time>2014-10-16T12:28:08Z</time>
      </trkpt>
      <trkpt lat="45.51536" lon="4.74011">
        <ele>498</ele>
        <time>2014-10-16T12:28:17Z</time>
      </trkpt>
      <trkpt lat="45.51533" lon="4.74011">
        <ele>497</ele>
        <time>2014-10-16T12:28:21Z</time>
      </trkpt>
      <trkpt lat="45.51514" lon="4.74004">
        <ele>495</ele>
        <time>2014-10-16T12:28:41Z</time>
      </trkpt>
      <trkpt lat="45.51512" lon="4.74004">
        <ele>497</ele>
        <time>2014-10-16T12:28:43Z</time>
      </trkpt>
      <trkpt lat="45.51504" lon="4.74005">
        <ele>494</ele>
        <time>2014-10-16T12:28:53Z</time>
      </trkpt>
      <trkpt lat="45.51495" lon="4.74007">
        <ele>489</ele>
        <time>2014-10-16T12:29:05Z</time>
      </trkpt>
      <trkpt lat="45.51484" lon="4.74004">
        <ele>489</ele>
        <time>2014-10-16T12:29:23Z</time>
      </trkpt>
      <trkpt lat="45.51481" lon="4.74">
        <ele>484</ele>
        <time>2014-10-16T12:29:31Z</time>
      </trkpt>
      <trkpt lat="45.5148" lon="4.73995">
        <ele>482</ele>
        <time>2014-10-16T12:29:40Z</time>
      </trkpt>
      <trkpt lat="45.51469" lon="4.73979">
        <ele>480</ele>
        <time>2014-10-16T12:29:52Z</time>
      </trkpt>
      <trkpt lat="45.51459" lon="4.73963">
        <ele>481</ele>
        <time>2014-10-16T12:30:07Z</time>
      </trkpt>
      <trkpt lat="45.51457" lon="4.73961">
        <ele>480</ele>
        <time>2014-10-16T12:30:10Z</time>
      </trkpt>
      <trkpt lat="45.51446" lon="4.73952">
        <ele>477</ele>
        <time>2014-10-16T12:30:23Z</time>
      </trkpt>
      <trkpt lat="45.51438" lon="4.73952">
        <ele>477</ele>
        <time>2014-10-16T12:30:34Z</time>
      </trkpt>
      <trkpt lat="45.51431" lon="4.73948">
        <ele>477</ele>
        <time>2014-10-16T12:30:44Z</time>
      </trkpt>
      <trkpt lat="45.51413" lon="4.73932">
        <ele>478</ele>
        <time>2014-10-16T12:31:01Z</time>
      </trkpt>
      <trkpt lat="45.5141" lon="4.73929">
        <ele>480</ele>
        <time>2014-10-16T12:31:05Z</time>
      </trkpt>
      <trkpt lat="45.51401" lon="4.73918">
        <ele>480</ele>
        <time>2014-10-16T12:31:16Z</time>
      </trkpt>
      <trkpt lat="45.5139" lon="4.73906">
        <ele>480</ele>
        <time>2014-10-16T12:31:31Z</time>
      </trkpt>
      <trkpt lat="45.51384" lon="4.73899">
        <ele>478</ele>
        <time>2014-10-16T12:31:39Z</time>
      </trkpt>
      <trkpt lat="45.51377" lon="4.73889">
        <ele>478</ele>
        <time>2014-10-16T12:31:49Z</time>
      </trkpt>
      <trkpt lat="45.51368" lon="4.73879">
        <ele>475</ele>
        <time>2014-10-16T12:32:02Z</time>
      </trkpt>
      <trkpt lat="45.51358" lon="4.73867">
        <ele>468</ele>
        <time>2014-10-16T12:32:17Z</time>
      </trkpt>
      <trkpt lat="45.5135" lon="4.73859">
        <ele>465</ele>
        <time>2014-10-16T12:32:29Z</time>
      </trkpt>
      <trkpt lat="45.51348" lon="4.73855">
        <ele>464</ele>
        <time>2014-10-16T12:32:33Z</time>
      </trkpt>
      <trkpt lat="45.51343" lon="4.73848">
        <ele>462</ele>
        <time>2014-10-16T12:32:45Z</time>
      </trkpt>
      <trkpt lat="45.51336" lon="4.7384">
        <ele>464</ele>
        <time>2014-10-16T12:32:55Z</time>
      </trkpt>
      <trkpt lat="45.51322" lon="4.73823">
        <ele>461</ele>
        <time>2014-10-16T12:33:10Z</time>
      </trkpt>
      <trkpt lat="45.51312" lon="4.73803">
        <ele>459</ele>
        <time>2014-10-16T12:33:23Z</time>
      </trkpt>
      <trkpt lat="45.51305" lon="4.73797">
        <ele>459</ele>
        <time>2014-10-16T12:33:33Z</time>
      </trkpt>
      <trkpt lat="45.51296" lon="4.73787">
        <ele>456</ele>
        <time>2014-10-16T12:33:46Z</time>
      </trkpt>
      <trkpt lat="45.51291" lon="4.73778">
        <ele>458</ele>
        <time>2014-10-16T12:33:50Z</time>
      </trkpt>
      <trkpt lat="45.51275" lon="4.73768">
        <ele>460</ele>
        <time>2014-10-16T12:34:11Z</time>
      </trkpt>
      <trkpt lat="45.51269" lon="4.73759">
        <ele>459</ele>
        <time>2014-10-16T12:34:20Z</time>
      </trkpt>
      <trkpt lat="45.51265" lon="4.73755">
        <ele>458</ele>
        <time>2014-10-16T12:34:25Z</time>
      </trkpt>
      <trkpt lat="45.51262" lon="4.73751">
        <ele>450</ele>
        <time>2014-10-16T12:34:34Z</time>
      </trkpt>
      <trkpt lat="45.51259" lon="4.73746">
        <ele>445</ele>
        <time>2014-10-16T12:34:45Z</time>
      </trkpt>
      <trkpt lat="45.51255" lon="4.73741">
        <ele>446</ele>
        <time>2014-10-16T12:34:57Z</time>
      </trkpt>
      <trkpt lat="45.51254" lon="4.73741">
        <ele>446</ele>
        <time>2014-10-16T12:35:07Z</time>
      </trkpt>
      <trkpt lat="45.51228" lon="4.73706">
        <ele>452</ele>
        <time>2014-10-16T12:35:27Z</time>
      </trkpt>
      <trkpt lat="45.51224" lon="4.737">
        <ele>451</ele>
        <time>2014-10-16T12:35:30Z</time>
      </trkpt>
      <trkpt lat="45.51207" lon="4.73681">
        <ele>445</ele>
        <time>2014-10-16T12:35:50Z</time>
      </trkpt>
      <trkpt lat="45.51197" lon="4.73674">
        <ele>442</ele>
        <time>2014-10-16T12:36:01Z</time>
      </trkpt>
      <trkpt lat="45.51187" lon="4.73663">
        <ele>445</ele>
        <time>2014-10-16T12:36:11Z</time>
      </trkpt>
      <trkpt lat="45.51179" lon="4.73653">
        <ele>445</ele>
        <time>2014-10-16T12:36:22Z</time>
      </trkpt>
      <trkpt lat="45.51177" lon="4.73651">
        <ele>445</ele>
        <time>2014-10-16T12:36:24Z</time>
      </trkpt>
      <trkpt lat="45.5116" lon="4.73633">
        <ele>444</ele>
        <time>2014-10-16T12:36:43Z</time>
      </trkpt>
      <trkpt lat="45.51157" lon="4.7363">
        <ele>444</ele>
        <time>2014-10-16T12:36:46Z</time>
      </trkpt>
      <trkpt lat="45.51148" lon="4.73618">
        <ele>446</ele>
        <time>2014-10-16T12:36:57Z</time>
      </trkpt>
      <trkpt lat="45.51132" lon="4.73602">
        <ele>438</ele>
        <time>2014-10-16T12:37:18Z</time>
      </trkpt>
      <trkpt lat="45.51131" lon="4.73601">
        <ele>437</ele>
        <time>2014-10-16T12:37:24Z</time>
      </trkpt>
      <trkpt lat="45.51125" lon="4.73597">
        <ele>431</ele>
        <time>2014-10-16T12:37:37Z</time>
      </trkpt>
      <trkpt lat="45.51119" lon="4.73594">
        <ele>431</ele>
        <time>2014-10-16T12:37:46Z</time>
      </trkpt>
      <trkpt lat="45.51112" lon="4.73592">
        <ele>430</ele>
        <time>2014-10-16T12:37:52Z</time>
      </trkpt>
      <trkpt lat="45.51105" lon="4.73586">
        <ele>425</ele>
        <time>2014-10-16T12:38:07Z</time>
      </trkpt>
      <trkpt lat="45.51095" lon="4.73571">
        <ele>428</ele>
        <time>2014-10-16T12:38:18Z</time>
      </trkpt>
      <trkpt lat="45.51088" lon="4.73563">
        <ele>430</ele>
        <time>2014-10-16T12:38:25Z</time>
      </trkpt>
      <trkpt lat="45.51077" lon="4.73552">
        <ele>430</ele>
        <time>2014-10-16T12:38:36Z</time>
      </trkpt>
      <trkpt lat="45.5106" lon="4.73528">
        <ele>429</ele>
        <time>2014-10-16T12:38:56Z</time>
      </trkpt>
      <trkpt lat="45.51056" lon="4.73524">
        <ele>429</ele>
        <time>2014-10-16T12:38:59Z</time>
      </trkpt>
      <trkpt lat="45.51043" lon="4.73511">
        <ele>431</ele>
        <time>2014-10-16T12:39:11Z</time>
      </trkpt>
      <trkpt lat="45.51035" lon="4.73504">
        <ele>430</ele>
        <time>2014-10-16T12:39:20Z</time>
      </trkpt>
      <trkpt lat="45.51014" lon="4.73494">
        <ele>427</ele>
        <time>2014-10-16T12:39:40Z</time>
      </trkpt>
      <trkpt lat="45.51012" lon="4.73493">
        <ele>427</ele>
        <time>2014-10-16T12:39:42Z</time>
      </trkpt>
      <trkpt lat="45.51" lon="4.7349">
        <ele>428</ele>
        <time>2014-10-16T12:39:55Z</time>
      </trkpt>
      <trkpt lat="45.50989" lon="4.73487">
        <ele>423</ele>
        <time>2014-10-16T12:40:10Z</time>
      </trkpt>
      <trkpt lat="45.50982" lon="4.73486">
        <ele>422</ele>
        <time>2014-10-16T12:40:15Z</time>
      </trkpt>
      <trkpt lat="45.50969" lon="4.73485">
        <ele>427</ele>
        <time>2014-10-16T12:40:27Z</time>
      </trkpt>
      <trkpt lat="45.50957" lon="4.73482">
        <ele>421</ele>
        <time>2014-10-16T12:40:37Z</time>
      </trkpt>
      <trkpt lat="45.50937" lon="4.73478">
        <ele>417</ele>
        <time>2014-10-16T12:40:58Z</time>
      </trkpt>
      <trkpt lat="45.50933" lon="4.73476">
        <ele>420</ele>
        <time>2014-10-16T12:41:01Z</time>
      </trkpt>
      <trkpt lat="45.50923" lon="4.7347">
        <ele>421</ele>
        <time>2014-10-16T12:41:10Z</time>
      </trkpt>
      <trkpt lat="45.50916" lon="4.73468">
        <ele>419</ele>
        <time>2014-10-16T12:41:22Z</time>
      </trkpt>
      <trkpt lat="45.50905" lon="4.73458">
        <ele>423</ele>
        <time>2014-10-16T12:41:32Z</time>
      </trkpt>
      <trkpt lat="45.50885" lon="4.73459">
        <ele>425</ele>
        <time>2014-10-16T12:41:48Z</time>
      </trkpt>
      <trkpt lat="45.50872" lon="4.73456">
        <ele>419</ele>
        <time>2014-10-16T12:41:58Z</time>
      </trkpt>
      <trkpt lat="45.50856" lon="4.73454">
        <ele>416</ele>
        <time>2014-10-16T12:42:12Z</time>
      </trkpt>
      <trkpt lat="45.50852" lon="4.73454">
        <ele>416</ele>
        <time>2014-10-16T12:42:16Z</time>
      </trkpt>
      <trkpt lat="45.50836" lon="4.73452">
        <ele>410</ele>
        <time>2014-10-16T12:42:34Z</time>
      </trkpt>
      <trkpt lat="45.50831" lon="4.73453">
        <ele>412</ele>
        <time>2014-10-16T12:42:38Z</time>
      </trkpt>
      <trkpt lat="45.50812" lon="4.73462">
        <ele>408</ele>
        <time>2014-10-16T12:42:51Z</time>
      </trkpt>
      <trkpt lat="45.50806" lon="4.73475">
        <ele>408</ele>
        <time>2014-10-16T12:43:00Z</time>
      </trkpt>
      <trkpt lat="45.50807" lon="4.73493">
        <ele>407</ele>
        <time>2014-10-16T12:43:12Z</time>
      </trkpt>
      <trkpt lat="45.50803" lon="4.73512">
        <ele>401</ele>
        <time>2014-10-16T12:43:28Z</time>
      </trkpt>
      <trkpt lat="45.50798" lon="4.73535">
        <ele>402</ele>
        <time>2014-10-16T12:43:40Z</time>
      </trkpt>
      <trkpt lat="45.50797" lon="4.73542">
        <ele>402</ele>
        <time>2014-10-16T12:43:45Z</time>
      </trkpt>
      <trkpt lat="45.50798" lon="4.73563">
        <ele>402</ele>
        <time>2014-10-16T12:43:56Z</time>
      </trkpt>
      <trkpt lat="45.50801" lon="4.7358">
        <ele>406</ele>
        <time>2014-10-16T12:44:09Z</time>
      </trkpt>
      <trkpt lat="45.50811" lon="4.73599">
        <ele>404</ele>
        <time>2014-10-16T12:44:24Z</time>
      </trkpt>
      <trkpt lat="45.50816" lon="4.73609">
        <ele>407</ele>
        <time>2014-10-16T12:44:30Z</time>
      </trkpt>
      <trkpt lat="45.50833" lon="4.73623">
        <ele>406</ele>
        <time>2014-10-16T12:44:48Z</time>
      </trkpt>
      <trkpt lat="45.50834" lon="4.73638">
        <ele>402</ele>
        <time>2014-10-16T12:44:55Z</time>
      </trkpt>
      <trkpt lat="45.50832" lon="4.73651">
        <ele>406</ele>
        <time>2014-10-16T12:45:02Z</time>
      </trkpt>
      <trkpt lat="45.5083" lon="4.73666">
        <ele>404</ele>
        <time>2014-10-16T12:45:12Z</time>
      </trkpt>
      <trkpt lat="45.5082" lon="4.7368">
        <ele>405</ele>
        <time>2014-10-16T12:45:24Z</time>
      </trkpt>
      <trkpt lat="45.50807" lon="4.73692">
        <ele>408</ele>
        <time>2014-10-16T12:45:36Z</time>
      </trkpt>
      <trkpt lat="45.50795" lon="4.73712">
        <ele>404</ele>
        <time>2014-10-16T12:45:50Z</time>
      </trkpt>
      <trkpt lat="45.50791" lon="4.73719">
        <ele>405</ele>
        <time>2014-10-16T12:45:56Z</time>
      </trkpt>
      <trkpt lat="45.50784" lon="4.73734">
        <ele>406</ele>
        <time>2014-10-16T12:46:09Z</time>
      </trkpt>
      <trkpt lat="45.50779" lon="4.73745">
        <ele>405</ele>
        <time>2014-10-16T12:46:18Z</time>
      </trkpt>
      <trkpt lat="45.50773" lon="4.73759">
        <ele>404</ele>
        <time>2014-10-16T12:46:29Z</time>
      </trkpt>
      <trkpt lat="45.50765" lon="4.73782">
        <ele>405</ele>
        <time>2014-10-16T12:46:48Z</time>
      </trkpt>
      <trkpt lat="45.50765" lon="4.73789">
        <ele>406</ele>
        <time>2014-10-16T12:46:52Z</time>
      </trkpt>
      <trkpt lat="45.50761" lon="4.73813">
        <ele>407</ele>
        <time>2014-10-16T12:47:06Z</time>
      </trkpt>
      <trkpt lat="45.50758" lon="4.73824">
        <ele>406</ele>
        <time>2014-10-16T12:47:22Z</time>
      </trkpt>
      <trkpt lat="45.50756" lon="4.7383">
        <ele>408</ele>
        <time>2014-10-16T12:47:24Z</time>
      </trkpt>
      <trkpt lat="45.50746" lon="4.73845">
        <ele>401</ele>
        <time>2014-10-16T12:47:38Z</time>
      </trkpt>
      <trkpt lat="45.50732" lon="4.7386">
        <ele>404</ele>
        <time>2014-10-16T12:47:55Z</time>
      </trkpt>
      <trkpt lat="45.50724" lon="4.73868">
        <ele>404</ele>
        <time>2014-10-16T12:48:04Z</time>
      </trkpt>
      <trkpt lat="45.50711" lon="4.73875">
        <ele>408</ele>
        <time>2014-10-16T12:48:12Z</time>
      </trkpt>
      <trkpt lat="45.50701" lon="4.73882">
        <ele>408</ele>
        <time>2014-10-16T12:48:21Z</time>
      </trkpt>
      <trkpt lat="45.50692" lon="4.73889">
        <ele>407</ele>
        <time>2014-10-16T12:48:30Z</time>
      </trkpt>
      <trkpt lat="45.50682" lon="4.73896">
        <ele>406</ele>
        <time>2014-10-16T12:48:41Z</time>
      </trkpt>
      <trkpt lat="45.5067" lon="4.73905">
        <ele>407</ele>
        <time>2014-10-16T12:48:53Z</time>
      </trkpt>
      <trkpt lat="45.50662" lon="4.73911">
        <ele>407</ele>
        <time>2014-10-16T12:49:03Z</time>
      </trkpt>
      <trkpt lat="45.50648" lon="4.7392">
        <ele>408</ele>
        <time>2014-10-16T12:49:16Z</time>
      </trkpt>
      <trkpt lat="45.50637" lon="4.73929">
        <ele>407</ele>
        <time>2014-10-16T12:49:26Z</time>
      </trkpt>
      <trkpt lat="45.50628" lon="4.73937">
        <ele>406</ele>
        <time>2014-10-16T12:49:36Z</time>
      </trkpt>
      <trkpt lat="45.5062" lon="4.73947">
        <ele>405</ele>
        <time>2014-10-16T12:49:47Z</time>
      </trkpt>
      <trkpt lat="45.50615" lon="4.73962">
        <ele>403</ele>
        <time>2014-10-16T12:49:58Z</time>
      </trkpt>
      <trkpt lat="45.50615" lon="4.73977">
        <ele>397</ele>
        <time>2014-10-16T12:50:10Z</time>
      </trkpt>
      <trkpt lat="45.50613" lon="4.73994">
        <ele>388</ele>
        <time>2014-10-16T12:50:23Z</time>
      </trkpt>
      <trkpt lat="45.5061" lon="4.7401">
        <ele>385</ele>
        <time>2014-10-16T12:50:35Z</time>
      </trkpt>
      <trkpt lat="45.50608" lon="4.74021">
        <ele>381</ele>
        <time>2014-10-16T12:50:43Z</time>
      </trkpt>
      <trkpt lat="45.50608" lon="4.74035">
        <ele>380</ele>
        <time>2014-10-16T12:50:53Z</time>
      </trkpt>
      <trkpt lat="45.50616" lon="4.74047">
        <ele>378</ele>
        <time>2014-10-16T12:51:05Z</time>
      </trkpt>
      <trkpt lat="45.50633" lon="4.74043">
        <ele>380</ele>
        <time>2014-10-16T12:51:25Z</time>
      </trkpt>
      <trkpt lat="45.50634" lon="4.74042">
        <ele>381</ele>
        <time>2014-10-16T12:51:28Z</time>
      </trkpt>
      <trkpt lat="45.50639" lon="4.74035">
        <ele>383</ele>
        <time>2014-10-16T12:51:39Z</time>
      </trkpt>
      <trkpt lat="45.50649" lon="4.74024">
        <ele>384</ele>
        <time>2014-10-16T12:51:48Z</time>
      </trkpt>
      <trkpt lat="45.50679" lon="4.74013">
        <ele>388</ele>
        <time>2014-10-16T12:52:06Z</time>
      </trkpt>
      <trkpt lat="45.50685" lon="4.74009">
        <ele>385</ele>
        <time>2014-10-16T12:52:12Z</time>
      </trkpt>
      <trkpt lat="45.50698" lon="4.74012">
        <ele>375</ele>
        <time>2014-10-16T12:52:30Z</time>
      </trkpt>
      <trkpt lat="45.50703" lon="4.74021">
        <ele>372</ele>
        <time>2014-10-16T12:52:40Z</time>
      </trkpt>
      <trkpt lat="45.50704" lon="4.74025">
        <ele>372</ele>
        <time>2014-10-16T12:52:43Z</time>
      </trkpt>
      <trkpt lat="45.50705" lon="4.74041">
        <ele>371</ele>
        <time>2014-10-16T12:52:55Z</time>
      </trkpt>
      <trkpt lat="45.50702" lon="4.74057">
        <ele>375</ele>
        <time>2014-10-16T12:53:05Z</time>
      </trkpt>
      <trkpt lat="45.50695" lon="4.74074">
        <ele>378</ele>
        <time>2014-10-16T12:53:16Z</time>
      </trkpt>
      <trkpt lat="45.50688" lon="4.741">
        <ele>378</ele>
        <time>2014-10-16T12:53:33Z</time>
      </trkpt>
      <trkpt lat="45.5069" lon="4.74114">
        <ele>375</ele>
        <time>2014-10-16T12:53:43Z</time>
      </trkpt>
      <trkpt lat="45.50692" lon="4.74128">
        <ele>373</ele>
        <time>2014-10-16T12:53:52Z</time>
      </trkpt>
      <trkpt lat="45.50694" lon="4.74129">
        <ele>373</ele>
        <time>2014-10-16T12:54:00Z</time>
      </trkpt>
      <trkpt lat="45.50699" lon="4.74147">
        <ele>375</ele>
        <time>2014-10-16T12:54:11Z</time>
      </trkpt>
      <trkpt lat="45.507" lon="4.74164">
        <ele>374</ele>
        <time>2014-10-16T12:54:22Z</time>
      </trkpt>
      <trkpt lat="45.50693" lon="4.74187">
        <ele>378</ele>
        <time>2014-10-16T12:54:37Z</time>
      </trkpt>
      <trkpt lat="45.50687" lon="4.74197">
        <ele>379</ele>
        <time>2014-10-16T12:54:45Z</time>
      </trkpt>
      <trkpt lat="45.50678" lon="4.74203">
        <ele>381</ele>
        <time>2014-10-16T12:54:55Z</time>
      </trkpt>
      <trkpt lat="45.5067" lon="4.74211">
        <ele>383</ele>
        <time>2014-10-16T12:55:06Z</time>
      </trkpt>
      <trkpt lat="45.50658" lon="4.74225">
        <ele>384</ele>
        <time>2014-10-16T12:55:19Z</time>
      </trkpt>
      <trkpt lat="45.50654" lon="4.74235">
        <ele>382</ele>
        <time>2014-10-16T12:55:28Z</time>
      </trkpt>
      <trkpt lat="45.50647" lon="4.74264">
        <ele>388</ele>
        <time>2014-10-16T12:55:49Z</time>
      </trkpt>
      <trkpt lat="45.50647" lon="4.74266">
        <ele>390</ele>
        <time>2014-10-16T12:55:50Z</time>
      </trkpt>
      <trkpt lat="45.50645" lon="4.74284">
        <ele>389</ele>
        <time>2014-10-16T12:56:03Z</time>
      </trkpt>
      <trkpt lat="45.50642" lon="4.74296">
        <ele>391</ele>
        <time>2014-10-16T12:56:14Z</time>
      </trkpt>
      <trkpt lat="45.5064" lon="4.74308">
        <ele>392</ele>
        <time>2014-10-16T12:56:24Z</time>
      </trkpt>
      <trkpt lat="45.50637" lon="4.74326">
        <ele>391</ele>
        <time>2014-10-16T12:56:34Z</time>
      </trkpt>
      <trkpt lat="45.5063" lon="4.74339">
        <ele>391</ele>
        <time>2014-10-16T12:56:45Z</time>
      </trkpt>
      <trkpt lat="45.50622" lon="4.7435">
        <ele>388</ele>
        <time>2014-10-16T12:56:56Z</time>
      </trkpt>
      <trkpt lat="45.50608" lon="4.74358">
        <ele>386</ele>
        <time>2014-10-16T12:57:10Z</time>
      </trkpt>
      <trkpt lat="45.50601" lon="4.74364">
        <ele>387</ele>
        <time>2014-10-16T12:57:18Z</time>
      </trkpt>
      <trkpt lat="45.50589" lon="4.7437">
        <ele>385</ele>
        <time>2014-10-16T12:57:29Z</time>
      </trkpt>
      <trkpt lat="45.50576" lon="4.74377">
        <ele>389</ele>
        <time>2014-10-16T12:57:43Z</time>
      </trkpt>
      <trkpt lat="45.50572" lon="4.74385">
        <ele>391</ele>
        <time>2014-10-16T12:57:51Z</time>
      </trkpt>
      <trkpt lat="45.50565" lon="4.74396">
        <ele>388</ele>
        <time>2014-10-16T12:58:02Z</time>
      </trkpt>
      <trkpt lat="45.50558" lon="4.74406">
        <ele>391</ele>
        <time>2014-10-16T12:58:13Z</time>
      </trkpt>
      <trkpt lat="45.50553" lon="4.74421">
        <ele>394</ele>
        <time>2014-10-16T12:58:25Z</time>
      </trkpt>
      <trkpt lat="45.50552" lon="4.74421">
        <ele>391</ele>
        <time>2014-10-16T12:58:36Z</time>
      </trkpt>
      <trkpt lat="45.50545" lon="4.74442">
        <ele>390</ele>
        <time>2014-10-16T12:58:46Z</time>
      </trkpt>
      <trkpt lat="45.5054" lon="4.74464">
        <ele>394</ele>
        <time>2014-10-16T12:59:03Z</time>
      </trkpt>
      <trkpt lat="45.50532" lon="4.74479">
        <ele>395</ele>
        <time>2014-10-16T12:59:14Z</time>
      </trkpt>
      <trkpt lat="45.50531" lon="4.74497">
        <ele>392</ele>
        <time>2014-10-16T12:59:26Z</time>
      </trkpt>
      <trkpt lat="45.50531" lon="4.74504">
        <ele>389</ele>
        <time>2014-10-16T12:59:32Z</time>
      </trkpt>
      <trkpt lat="45.50531" lon="4.74515">
        <ele>390</ele>
        <time>2014-10-16T12:59:41Z</time>
      </trkpt>
      <trkpt lat="45.50529" lon="4.74528">
        <ele>392</ele>
        <time>2014-10-16T12:59:52Z</time>
      </trkpt>
      <trkpt lat="45.50527" lon="4.7454">
        <ele>389</ele>
        <time>2014-10-16T13:00:03Z</time>
      </trkpt>
      <trkpt lat="45.50525" lon="4.74564">
        <ele>393</ele>
        <time>2014-10-16T13:00:20Z</time>
      </trkpt>
      <trkpt lat="45.50525" lon="4.74577">
        <ele>392</ele>
        <time>2014-10-16T13:00:29Z</time>
      </trkpt>
      <trkpt lat="45.50526" lon="4.74591">
        <ele>393</ele>
        <time>2014-10-16T13:00:38Z</time>
      </trkpt>
      <trkpt lat="45.50523" lon="4.74598">
        <ele>390</ele>
        <time>2014-10-16T13:00:47Z</time>
      </trkpt>
      <trkpt lat="45.50515" lon="4.74617">
        <ele>390</ele>
        <time>2014-10-16T13:01:02Z</time>
      </trkpt>
      <trkpt lat="45.50512" lon="4.74625">
        <ele>388</ele>
        <time>2014-10-16T13:01:09Z</time>
      </trkpt>
      <trkpt lat="45.50506" lon="4.74642">
        <ele>387</ele>
        <time>2014-10-16T13:01:21Z</time>
      </trkpt>
      <trkpt lat="45.50501" lon="4.74653">
        <ele>387</ele>
        <time>2014-10-16T13:01:31Z</time>
      </trkpt>
      <trkpt lat="45.50495" lon="4.74664">
        <ele>385</ele>
        <time>2014-10-16T13:01:42Z</time>
      </trkpt>
      <trkpt lat="45.5048" lon="4.74683">
        <ele>386</ele>
        <time>2014-10-16T13:02:03Z</time>
      </trkpt>
      <trkpt lat="45.50478" lon="4.74685">
        <ele>385</ele>
        <time>2014-10-16T13:02:08Z</time>
      </trkpt>
      <trkpt lat="45.50473" lon="4.7469">
        <ele>384</ele>
        <time>2014-10-16T13:02:16Z</time>
      </trkpt>
      <trkpt lat="45.50458" lon="4.74701">
        <ele>386</ele>
        <time>2014-10-16T13:02:30Z</time>
      </trkpt>
      <trkpt lat="45.50452" lon="4.74706">
        <ele>385</ele>
        <time>2014-10-16T13:02:37Z</time>
      </trkpt>
      <trkpt lat="45.50444" lon="4.74712">
        <ele>383</ele>
        <time>2014-10-16T13:02:48Z</time>
      </trkpt>
      <trkpt lat="45.50432" lon="4.7472">
        <ele>386</ele>
        <time>2014-10-16T13:03:03Z</time>
      </trkpt>
      <trkpt lat="45.50427" lon="4.74724">
        <ele>384</ele>
        <time>2014-10-16T13:03:10Z</time>
      </trkpt>
      <trkpt lat="45.50421" lon="4.7473">
        <ele>383</ele>
        <time>2014-10-16T13:03:21Z</time>
      </trkpt>
      <trkpt lat="45.50414" lon="4.74738">
        <ele>382</ele>
        <time>2014-10-16T13:03:32Z</time>
      </trkpt>
      <trkpt lat="45.50407" lon="4.74744">
        <ele>385</ele>
        <time>2014-10-16T13:03:43Z</time>
      </trkpt>
      <trkpt lat="45.504" lon="4.7475">
        <ele>384</ele>
        <time>2014-10-16T13:03:54Z</time>
      </trkpt>
      <trkpt lat="45.50389" lon="4.74763">
        <ele>381</ele>
        <time>2014-10-16T13:04:08Z</time>
      </trkpt>
      <trkpt lat="45.5038" lon="4.74769">
        <ele>383</ele>
        <time>2014-10-16T13:04:19Z</time>
      </trkpt>
      <trkpt lat="45.50377" lon="4.7478">
        <ele>377</ele>
        <time>2014-10-16T13:04:32Z</time>
      </trkpt>
      <trkpt lat="45.50382" lon="4.74792">
        <ele>380</ele>
        <time>2014-10-16T13:04:39Z</time>
      </trkpt>
      <trkpt lat="45.50392" lon="4.74806">
        <ele>378</ele>
        <time>2014-10-16T13:04:52Z</time>
      </trkpt>
      <trkpt lat="45.50394" lon="4.74816">
        <ele>378</ele>
        <time>2014-10-16T13:05:00Z</time>
      </trkpt>
      <trkpt lat="45.50402" lon="4.74826">
        <ele>379</ele>
        <time>2014-10-16T13:05:11Z</time>
      </trkpt>
      <trkpt lat="45.50409" lon="4.74849">
        <ele>377</ele>
        <time>2014-10-16T13:05:31Z</time>
      </trkpt>
      <trkpt lat="45.5041" lon="4.74859">
        <ele>376</ele>
        <time>2014-10-16T13:05:40Z</time>
      </trkpt>
      <trkpt lat="45.50412" lon="4.74863">
        <ele>375</ele>
        <time>2014-10-16T13:05:44Z</time>
      </trkpt>
      <trkpt lat="45.50416" lon="4.74875">
        <ele>375</ele>
        <time>2014-10-16T13:05:55Z</time>
      </trkpt>
      <trkpt lat="45.50422" lon="4.74888">
        <ele>373</ele>
        <time>2014-10-16T13:06:06Z</time>
      </trkpt>
      <trkpt lat="45.50427" lon="4.749">
        <ele>376</ele>
        <time>2014-10-16T13:06:17Z</time>
      </trkpt>
      <trkpt lat="45.50428" lon="4.74927">
        <ele>372</ele>
        <time>2014-10-16T13:06:37Z</time>
      </trkpt>
      <trkpt lat="45.50428" lon="4.74927">
        <ele>373</ele>
        <time>2014-10-16T13:06:39Z</time>
      </trkpt>
      <trkpt lat="45.50429" lon="4.74927">
        <ele>374</ele>
        <time>2014-10-16T13:06:54Z</time>
      </trkpt>
      <trkpt lat="45.50429" lon="4.74927">
        <ele>374</ele>
        <time>2014-10-16T13:07:06Z</time>
      </trkpt>
      <trkpt lat="45.50429" lon="4.74927">
        <ele>374</ele>
        <time>2014-10-16T13:07:12Z</time>
      </trkpt>
      <trkpt lat="45.50429" lon="4.74927">
        <ele>374</ele>
        <time>2014-10-16T13:07:23Z</time>
      </trkpt>
      <trkpt lat="45.50428" lon="4.74927">
        <ele>378</ele>
        <time>2014-10-16T13:07:40Z</time>
      </trkpt>
      <trkpt lat="45.50428" lon="4.74927">
        <ele>378</ele>
        <time>2014-10-16T13:07:45Z</time>
      </trkpt>
      <trkpt lat="45.50429" lon="4.74926">
        <ele>378</ele>
        <time>2014-10-16T13:08:05Z</time>
      </trkpt>
      <trkpt lat="45.50429" lon="4.74928">
        <ele>375</ele>
        <time>2014-10-16T13:08:12Z</time>
      </trkpt>
      <trkpt lat="45.50428" lon="4.74928">
        <ele>375</ele>
        <time>2014-10-16T13:08:18Z</time>
      </trkpt>
      <trkpt lat="45.50427" lon="4.74929">
        <ele>377</ele>
        <time>2014-10-16T13:08:29Z</time>
      </trkpt>
      <trkpt lat="45.50426" lon="4.74929">
        <ele>377</ele>
        <time>2014-10-16T13:08:41Z</time>
      </trkpt>
      <trkpt lat="45.50426" lon="4.74929">
        <ele>377</ele>
        <time>2014-10-16T13:08:51Z</time>
      </trkpt>
      <trkpt lat="45.50426" lon="4.74929">
        <ele>377</ele>
        <time>2014-10-16T13:09:02Z</time>
      </trkpt>
      <trkpt lat="45.50427" lon="4.74929">
        <ele>378</ele>
        <time>2014-10-16T13:09:16Z</time>
      </trkpt>
      <trkpt lat="45.50429" lon="4.74929">
        <ele>380</ele>
        <time>2014-10-16T13:09:24Z</time>
      </trkpt>
      <trkpt lat="45.50429" lon="4.74929">
        <ele>380</ele>
        <time>2014-10-16T13:09:35Z</time>
      </trkpt>
      <trkpt lat="45.50429" lon="4.74929">
        <ele>380</ele>
        <time>2014-10-16T13:09:47Z</time>
      </trkpt>
      <trkpt lat="45.50429" lon="4.74929">
        <ele>380</ele>
        <time>2014-10-16T13:10:07Z</time>
      </trkpt>
      <trkpt lat="45.50429" lon="4.74929">
        <ele>380</ele>
        <time>2014-10-16T13:10:08Z</time>
      </trkpt>
      <trkpt lat="45.50429" lon="4.74929">
        <ele>380</ele>
        <time>2014-10-16T13:10:19Z</time>
      </trkpt>
      <trkpt lat="45.50429" lon="4.74929">
        <ele>380</ele>
        <time>2014-10-16T13:10:32Z</time>
      </trkpt>
      <trkpt lat="45.50429" lon="4.74929">
        <ele>380</ele>
        <time>2014-10-16T13:10:41Z</time>
      </trkpt>
      <trkpt lat="45.50429" lon="4.74929">
        <ele>380</ele>
        <time>2014-10-16T13:10:56Z</time>
      </trkpt>
      <trkpt lat="45.50429" lon="4.74929">
        <ele>380</ele>
        <time>2014-10-16T13:11:06Z</time>
      </trkpt>
      <trkpt lat="45.50429" lon="4.74929">
        <ele>380</ele>
        <time>2014-10-16T13:11:15Z</time>
      </trkpt>
      <trkpt lat="45.5043" lon="4.74932">
        <ele>382</ele>
        <time>2014-10-16T13:11:25Z</time>
      </trkpt>
      <trkpt lat="45.50436" lon="4.74938">
        <ele>378</ele>
        <time>2014-10-16T13:11:39Z</time>
      </trkpt>
      <trkpt lat="45.50444" lon="4.74932">
        <ele>376</ele>
        <time>2014-10-16T13:11:57Z</time>
      </trkpt>
      <trkpt lat="45.50445" lon="4.74932">
        <ele>376</ele>
        <time>2014-10-16T13:11:58Z</time>
      </trkpt>
      <trkpt lat="45.50469" lon="4.7491">
        <ele>380</ele>
        <time>2014-10-16T13:12:19Z</time>
      </trkpt>
      <trkpt lat="45.5047" lon="4.74909">
        <ele>379</ele>
        <time>2014-10-16T13:12:20Z</time>
      </trkpt>
      <trkpt lat="45.50481" lon="4.74897">
        <ele>377</ele>
        <time>2014-10-16T13:12:31Z</time>
      </trkpt>
      <trkpt lat="45.50488" lon="4.74894">
        <ele>373</ele>
        <time>2014-10-16T13:12:44Z</time>
      </trkpt>
      <trkpt lat="45.50503" lon="4.74882">
        <ele>370</ele>
        <time>2014-10-16T13:13:00Z</time>
      </trkpt>
      <trkpt lat="45.50507" lon="4.74882">
        <ele>370</ele>
        <time>2014-10-16T13:13:04Z</time>
      </trkpt>
      <trkpt lat="45.50523" lon="4.74876">
        <ele>373</ele>
        <time>2014-10-16T13:13:17Z</time>
      </trkpt>
      <trkpt lat="45.50531" lon="4.7488">
        <ele>372</ele>
        <time>2014-10-16T13:13:27Z</time>
      </trkpt>
      <trkpt lat="45.5054" lon="4.74879">
        <ele>375</ele>
        <time>2014-10-16T13:13:37Z</time>
      </trkpt>
      <trkpt lat="45.50555" lon="4.74882">
        <ele>384</ele>
        <time>2014-10-16T13:13:48Z</time>
      </trkpt>
      <trkpt lat="45.50555" lon="4.74878">
        <ele>379</ele>
        <time>2014-10-16T13:13:59Z</time>
      </trkpt>
      <trkpt lat="45.50563" lon="4.74871">
        <ele>367</ele>
        <time>2014-10-16T13:14:10Z</time>
      </trkpt>
      <trkpt lat="45.50583" lon="4.74858">
        <ele>364</ele>
        <time>2014-10-16T13:14:26Z</time>
      </trkpt>
      <trkpt lat="45.50595" lon="4.74848">
        <ele>362</ele>
        <time>2014-10-16T13:14:38Z</time>
      </trkpt>
      <trkpt lat="45.506" lon="4.74848">
        <ele>362</ele>
        <time>2014-10-16T13:14:43Z</time>
      </trkpt>
      <trkpt lat="45.50617" lon="4.74853">
        <ele>365</ele>
        <time>2014-10-16T13:14:59Z</time>
      </trkpt>
      <trkpt lat="45.5062" lon="4.74847">
        <ele>361</ele>
        <time>2014-10-16T13:15:08Z</time>
      </trkpt>
      <trkpt lat="45.50626" lon="4.74843">
        <ele>360</ele>
        <time>2014-10-16T13:15:16Z</time>
      </trkpt>
      <trkpt lat="45.50628" lon="4.74842">
        <ele>361</ele>
        <time>2014-10-16T13:15:27Z</time>
      </trkpt>
      <trkpt lat="45.50643" lon="4.74839">
        <ele>363</ele>
        <time>2014-10-16T13:15:46Z</time>
      </trkpt>
      <trkpt lat="45.50643" lon="4.74841">
        <ele>361</ele>
        <time>2014-10-16T13:15:49Z</time>
      </trkpt>
      <trkpt lat="45.50652" lon="4.74865">
        <ele>361</ele>
        <time>2014-10-16T13:16:00Z</time>
      </trkpt>
      <trkpt lat="45.50656" lon="4.74881">
        <ele>362</ele>
        <time>2014-10-16T13:16:11Z</time>
      </trkpt>
      <trkpt lat="45.50658" lon="4.74898">
        <ele>366</ele>
        <time>2014-10-16T13:16:23Z</time>
      </trkpt>
      <trkpt lat="45.50665" lon="4.74914">
        <ele>364</ele>
        <time>2014-10-16T13:16:35Z</time>
      </trkpt>
      <trkpt lat="45.50659" lon="4.74937">
        <ele>369</ele>
        <time>2014-10-16T13:16:51Z</time>
      </trkpt>
      <trkpt lat="45.50658" lon="4.74939">
        <ele>368</ele>
        <time>2014-10-16T13:16:55Z</time>
      </trkpt>
      <trkpt lat="45.50651" lon="4.7495">
        <ele>365</ele>
        <time>2014-10-16T13:17:06Z</time>
      </trkpt>
      <trkpt lat="45.50629" lon="4.74955">
        <ele>354</ele>
        <time>2014-10-16T13:17:25Z</time>
      </trkpt>
      <trkpt lat="45.50626" lon="4.7496">
        <ele>356</ele>
        <time>2014-10-16T13:17:34Z</time>
      </trkpt>
      <trkpt lat="45.50624" lon="4.74967">
        <ele>367</ele>
        <time>2014-10-16T13:17:39Z</time>
      </trkpt>
      <trkpt lat="45.50612" lon="4.74973">
        <ele>368</ele>
        <time>2014-10-16T13:17:50Z</time>
      </trkpt>
      <trkpt lat="45.506" lon="4.74982">
        <ele>362</ele>
        <time>2014-10-16T13:18:03Z</time>
      </trkpt>
      <trkpt lat="45.50596" lon="4.75006">
        <ele>366</ele>
        <time>2014-10-16T13:18:20Z</time>
      </trkpt>
      <trkpt lat="45.50596" lon="4.75008">
        <ele>364</ele>
        <time>2014-10-16T13:18:23Z</time>
      </trkpt>
      <trkpt lat="45.50594" lon="4.75025">
        <ele>367</ele>
        <time>2014-10-16T13:18:34Z</time>
      </trkpt>
      <trkpt lat="45.50586" lon="4.75043">
        <ele>368</ele>
        <time>2014-10-16T13:18:50Z</time>
      </trkpt>
      <trkpt lat="45.50585" lon="4.75053">
        <ele>368</ele>
        <time>2014-10-16T13:18:56Z</time>
      </trkpt>
      <trkpt lat="45.5058" lon="4.75072">
        <ele>368</ele>
        <time>2014-10-16T13:19:08Z</time>
      </trkpt>
      <trkpt lat="45.50579" lon="4.75084">
        <ele>374</ele>
        <time>2014-10-16T13:19:18Z</time>
      </trkpt>
      <trkpt lat="45.50577" lon="4.75087">
        <ele>371</ele>
        <time>2014-10-16T13:19:29Z</time>
      </trkpt>
      <trkpt lat="45.50582" lon="4.75091">
        <ele>377</ele>
        <time>2014-10-16T13:19:42Z</time>
      </trkpt>
      <trkpt lat="45.50587" lon="4.75099">
        <ele>379</ele>
        <time>2014-10-16T13:19:51Z</time>
      </trkpt>
      <trkpt lat="45.50589" lon="4.75106">
        <ele>381</ele>
        <time>2014-10-16T13:20:02Z</time>
      </trkpt>
      <trkpt lat="45.50603" lon="4.75135">
        <ele>376</ele>
        <time>2014-10-16T13:20:18Z</time>
      </trkpt>
      <trkpt lat="45.50608" lon="4.75152">
        <ele>373</ele>
        <time>2014-10-16T13:20:33Z</time>
      </trkpt>
      <trkpt lat="45.50615" lon="4.75164">
        <ele>377</ele>
        <time>2014-10-16T13:20:41Z</time>
      </trkpt>
      <trkpt lat="45.50617" lon="4.75171">
        <ele>377</ele>
        <time>2014-10-16T13:20:48Z</time>
      </trkpt>
      <trkpt lat="45.50623" lon="4.75181">
        <ele>375</ele>
        <time>2014-10-16T13:20:57Z</time>
      </trkpt>
      <trkpt lat="45.50639" lon="4.75193">
        <ele>376</ele>
        <time>2014-10-16T13:21:14Z</time>
      </trkpt>
      <trkpt lat="45.50646" lon="4.75197">
        <ele>374</ele>
        <time>2014-10-16T13:21:21Z</time>
      </trkpt>
      <trkpt lat="45.50656" lon="4.75206">
        <ele>375</ele>
        <time>2014-10-16T13:21:31Z</time>
      </trkpt>
      <trkpt lat="45.50659" lon="4.75215">
        <ele>377</ele>
        <time>2014-10-16T13:21:43Z</time>
      </trkpt>
      <trkpt lat="45.50663" lon="4.75232">
        <ele>373</ele>
        <time>2014-10-16T13:22:01Z</time>
      </trkpt>
      <trkpt lat="45.5067" lon="4.75248">
        <ele>371</ele>
        <time>2014-10-16T13:22:13Z</time>
      </trkpt>
      <trkpt lat="45.5067" lon="4.75249">
        <ele>371</ele>
        <time>2014-10-16T13:22:14Z</time>
      </trkpt>
      <trkpt lat="45.50665" lon="4.75267">
        <ele>375</ele>
        <time>2014-10-16T13:22:25Z</time>
      </trkpt>
      <trkpt lat="45.50662" lon="4.75281">
        <ele>370</ele>
        <time>2014-10-16T13:22:36Z</time>
      </trkpt>
      <trkpt lat="45.50668" lon="4.75309">
        <ele>376</ele>
        <time>2014-10-16T13:22:56Z</time>
      </trkpt>
      <trkpt lat="45.50667" lon="4.75311">
        <ele>377</ele>
        <time>2014-10-16T13:22:58Z</time>
      </trkpt>
      <trkpt lat="45.50674" lon="4.75332">
        <ele>374</ele>
        <time>2014-10-16T13:23:13Z</time>
      </trkpt>
      <trkpt lat="45.50663" lon="4.75345">
        <ele>370</ele>
        <time>2014-10-16T13:23:26Z</time>
      </trkpt>
      <trkpt lat="45.5065" lon="4.7536">
        <ele>364</ele>
        <time>2014-10-16T13:23:41Z</time>
      </trkpt>
      <trkpt lat="45.50649" lon="4.75361">
        <ele>363</ele>
        <time>2014-10-16T13:23:42Z</time>
      </trkpt>
      <trkpt lat="45.50637" lon="4.75362">
        <ele>364</ele>
        <time>2014-10-16T13:23:54Z</time>
      </trkpt>
      <trkpt lat="45.50626" lon="4.75366">
        <ele>364</ele>
        <time>2014-10-16T13:24:12Z</time>
      </trkpt>
      <trkpt lat="45.50627" lon="4.75368">
        <ele>363</ele>
        <time>2014-10-16T13:24:15Z</time>
      </trkpt>
      <trkpt lat="45.5064" lon="4.75378">
        <ele>363</ele>
        <time>2014-10-16T13:24:36Z</time>
      </trkpt>
      <trkpt lat="45.50641" lon="4.75378">
        <ele>362</ele>
        <time>2014-10-16T13:24:37Z</time>
      </trkpt>
      <trkpt lat="45.50644" lon="4.75377">
        <ele>365</ele>
        <time>2014-10-16T13:24:49Z</time>
      </trkpt>
      <trkpt lat="45.50661" lon="4.75386">
        <ele>357</ele>
        <time>2014-10-16T13:25:08Z</time>
      </trkpt>
      <trkpt lat="45.50662" lon="4.75386">
        <ele>358</ele>
        <time>2014-10-16T13:25:10Z</time>
      </trkpt>
      <trkpt lat="45.5067" lon="4.75387">
        <ele>357</ele>
        <time>2014-10-16T13:25:22Z</time>
      </trkpt>
      <trkpt lat="45.50696" lon="4.75394">
        <ele>366</ele>
        <time>2014-10-16T13:25:41Z</time>
      </trkpt>
      <trkpt lat="45.50695" lon="4.75395">
        <ele>365</ele>
        <time>2014-10-16T13:25:42Z</time>
      </trkpt>
      <trkpt lat="45.50707" lon="4.75396">
        <ele>347</ele>
        <time>2014-10-16T13:25:56Z</time>
      </trkpt>
      <trkpt lat="45.50716" lon="4.75404">
        <ele>351</ele>
        <time>2014-10-16T13:26:07Z</time>
      </trkpt>
      <trkpt lat="45.5072" lon="4.75411">
        <ele>347</ele>
        <time>2014-10-16T13:26:15Z</time>
      </trkpt>
      <trkpt lat="45.50728" lon="4.75416">
        <ele>346</ele>
        <time>2014-10-16T13:26:29Z</time>
      </trkpt>
      <trkpt lat="45.50739" lon="4.75422">
        <ele>343</ele>
        <time>2014-10-16T13:26:40Z</time>
      </trkpt>
      <trkpt lat="45.50744" lon="4.75423">
        <ele>344</ele>
        <time>2014-10-16T13:26:48Z</time>
      </trkpt>
      <trkpt lat="45.50746" lon="4.75422">
        <ele>343</ele>
        <time>2014-10-16T13:26:59Z</time>
      </trkpt>
      <trkpt lat="45.50753" lon="4.75431">
        <ele>341</ele>
        <time>2014-10-16T13:27:10Z</time>
      </trkpt>
      <trkpt lat="45.50751" lon="4.75451">
        <ele>339</ele>
        <time>2014-10-16T13:27:31Z</time>
      </trkpt>
      <trkpt lat="45.5075" lon="4.75453">
        <ele>342</ele>
        <time>2014-10-16T13:27:33Z</time>
      </trkpt>
      <trkpt lat="45.50747" lon="4.75467">
        <ele>341</ele>
        <time>2014-10-16T13:27:45Z</time>
      </trkpt>
      <trkpt lat="45.50741" lon="4.75469">
        <ele>345</ele>
        <time>2014-10-16T13:27:58Z</time>
      </trkpt>
      <trkpt lat="45.50741" lon="4.75475">
        <ele>344</ele>
        <time>2014-10-16T13:28:05Z</time>
      </trkpt>
      <trkpt lat="45.50734" lon="4.75477">
        <ele>345</ele>
        <time>2014-10-16T13:28:16Z</time>
      </trkpt>
      <trkpt lat="45.50725" lon="4.75484">
        <ele>340</ele>
        <time>2014-10-16T13:28:28Z</time>
      </trkpt>
      <trkpt lat="45.50711" lon="4.75475">
        <ele>339</ele>
        <time>2014-10-16T13:28:42Z</time>
      </trkpt>
      <trkpt lat="45.50706" lon="4.75485">
        <ele>347</ele>
        <time>2014-10-16T13:28:55Z</time>
      </trkpt>
      <trkpt lat="45.50706" lon="4.75482">
        <ele>343</ele>
        <time>2014-10-16T13:29:00Z</time>
      </trkpt>
      <trkpt lat="45.50706" lon="4.75482">
        <ele>343</ele>
        <time>2014-10-16T13:29:11Z</time>
      </trkpt>
      <trkpt lat="45.50706" lon="4.75482">
        <ele>343</ele>
        <time>2014-10-16T13:29:22Z</time>
      </trkpt>
      <trkpt lat="45.50706" lon="4.75481">
        <ele>343</ele>
        <time>2014-10-16T13:29:35Z</time>
      </trkpt>
      <trkpt lat="45.50706" lon="4.75482">
        <ele>343</ele>
        <time>2014-10-16T13:29:44Z</time>
      </trkpt>
      <trkpt lat="45.50716" lon="4.7548">
        <ele>344</ele>
        <time>2014-10-16T13:29:55Z</time>
      </trkpt>
      <trkpt lat="45.50725" lon="4.75479">
        <ele>345</ele>
        <time>2014-10-16T13:30:06Z</time>
      </trkpt>
      <trkpt lat="45.50737" lon="4.75493">
        <ele>342</ele>
        <time>2014-10-16T13:30:22Z</time>
      </trkpt>
      <trkpt lat="45.50737" lon="4.75496">
        <ele>343</ele>
        <time>2014-10-16T13:30:33Z</time>
      </trkpt>
      <trkpt lat="45.50737" lon="4.75496">
        <ele>343</ele>
        <time>2014-10-16T13:30:39Z</time>
      </trkpt>
      <trkpt lat="45.50724" lon="4.75501">
        <ele>339</ele>
        <time>2014-10-16T13:30:50Z</time>
      </trkpt>
      <trkpt lat="45.50704" lon="4.75499">
        <ele>345</ele>
        <time>2014-10-16T13:31:05Z</time>
      </trkpt>
      <trkpt lat="45.50697" lon="4.75506">
        <ele>339</ele>
        <time>2014-10-16T13:31:17Z</time>
      </trkpt>
      <trkpt lat="45.50684" lon="4.75509">
        <ele>349</ele>
        <time>2014-10-16T13:31:30Z</time>
      </trkpt>
      <trkpt lat="45.50682" lon="4.75509">
        <ele>350</ele>
        <time>2014-10-16T13:31:35Z</time>
      </trkpt>
      <trkpt lat="45.50675" lon="4.75519">
        <ele>350</ele>
        <time>2014-10-16T13:31:45Z</time>
      </trkpt>
      <trkpt lat="45.5065" lon="4.75534">
        <ele>358</ele>
        <time>2014-10-16T13:32:03Z</time>
      </trkpt>
      <trkpt lat="45.50649" lon="4.75534">
        <ele>350</ele>
        <time>2014-10-16T13:32:07Z</time>
      </trkpt>
      <trkpt lat="45.50644" lon="4.75539">
        <ele>358</ele>
        <time>2014-10-16T13:32:18Z</time>
      </trkpt>
      <trkpt lat="45.50637" lon="4.75545">
        <ele>352</ele>
        <time>2014-10-16T13:32:34Z</time>
      </trkpt>
      <trkpt lat="45.50627" lon="4.75538">
        <ele>352</ele>
        <time>2014-10-16T13:32:47Z</time>
      </trkpt>
      <trkpt lat="45.50622" lon="4.7554">
        <ele>352</ele>
        <time>2014-10-16T13:32:57Z</time>
      </trkpt>
      <trkpt lat="45.50606" lon="4.7555">
        <ele>353</ele>
        <time>2014-10-16T13:33:06Z</time>
      </trkpt>
      <trkpt lat="45.50598" lon="4.75557">
        <ele>353</ele>
        <time>2014-10-16T13:33:16Z</time>
      </trkpt>
      <trkpt lat="45.5058" lon="4.75557">
        <ele>356</ele>
        <time>2014-10-16T13:33:33Z</time>
      </trkpt>
      <trkpt lat="45.50578" lon="4.7556">
        <ele>357</ele>
        <time>2014-10-16T13:33:35Z</time>
      </trkpt>
      <trkpt lat="45.50568" lon="4.75572">
        <ele>362</ele>
        <time>2014-10-16T13:33:46Z</time>
      </trkpt>
      <trkpt lat="45.50557" lon="4.75588">
        <ele>362</ele>
        <time>2014-10-16T13:33:58Z</time>
      </trkpt>
      <trkpt lat="45.50546" lon="4.75599">
        <ele>363</ele>
        <time>2014-10-16T13:34:16Z</time>
      </trkpt>
      <trkpt lat="45.50541" lon="4.75603">
        <ele>365</ele>
        <time>2014-10-16T13:34:22Z</time>
      </trkpt>
      <trkpt lat="45.50536" lon="4.75611">
        <ele>365</ele>
        <time>2014-10-16T13:34:30Z</time>
      </trkpt>
      <trkpt lat="45.5053" lon="4.75617">
        <ele>368</ele>
        <time>2014-10-16T13:34:41Z</time>
      </trkpt>
      <trkpt lat="45.50531" lon="4.75646">
        <ele>377</ele>
        <time>2014-10-16T13:35:00Z</time>
      </trkpt>
      <trkpt lat="45.50536" lon="4.75659">
        <ele>377</ele>
        <time>2014-10-16T13:35:11Z</time>
      </trkpt>
      <trkpt lat="45.5054" lon="4.75668">
        <ele>377</ele>
        <time>2014-10-16T13:35:22Z</time>
      </trkpt>
      <trkpt lat="45.50543" lon="4.75668">
        <ele>378</ele>
        <time>2014-10-16T13:35:25Z</time>
      </trkpt>
      <trkpt lat="45.50565" lon="4.75675">
        <ele>376</ele>
        <time>2014-10-16T13:35:43Z</time>
      </trkpt>
      <trkpt lat="45.50568" lon="4.75675">
        <ele>375</ele>
        <time>2014-10-16T13:35:47Z</time>
      </trkpt>
      <trkpt lat="45.50579" lon="4.75678">
        <ele>374</ele>
        <time>2014-10-16T13:35:59Z</time>
      </trkpt>
      <trkpt lat="45.50587" lon="4.75677">
        <ele>377</ele>
        <time>2014-10-16T13:36:09Z</time>
      </trkpt>
      <trkpt lat="45.50598" lon="4.75678">
        <ele>377</ele>
        <time>2014-10-16T13:36:20Z</time>
      </trkpt>
      <trkpt lat="45.50615" lon="4.7567">
        <ele>380</ele>
        <time>2014-10-16T13:36:36Z</time>
      </trkpt>
      <trkpt lat="45.5062" lon="4.75665">
        <ele>383</ele>
        <time>2014-10-16T13:36:42Z</time>
      </trkpt>
      <trkpt lat="45.50641" lon="4.75652">
        <ele>389</ele>
        <time>2014-10-16T13:36:58Z</time>
      </trkpt>
      <trkpt lat="45.50647" lon="4.75642">
        <ele>392</ele>
        <time>2014-10-16T13:37:04Z</time>
      </trkpt>
      <trkpt lat="45.50656" lon="4.75637">
        <ele>391</ele>
        <time>2014-10-16T13:37:15Z</time>
      </trkpt>
      <trkpt lat="45.50674" lon="4.75631">
        <ele>400</ele>
        <time>2014-10-16T13:37:28Z</time>
      </trkpt>
      <trkpt lat="45.50682" lon="4.75632">
        <ele>391</ele>
        <time>2014-10-16T13:37:41Z</time>
      </trkpt>
      <trkpt lat="45.50694" lon="4.7565">
        <ele>383</ele>
        <time>2014-10-16T13:37:58Z</time>
      </trkpt>
      <trkpt lat="45.50697" lon="4.75653">
        <ele>383</ele>
        <time>2014-10-16T13:38:08Z</time>
      </trkpt>
      <trkpt lat="45.507" lon="4.75655">
        <ele>384</ele>
        <time>2014-10-16T13:38:12Z</time>
      </trkpt>
      <trkpt lat="45.5071" lon="4.75662">
        <ele>388</ele>
        <time>2014-10-16T13:38:21Z</time>
      </trkpt>
      <trkpt lat="45.5073" lon="4.75667">
        <ele>387</ele>
        <time>2014-10-16T13:38:39Z</time>
      </trkpt>
      <trkpt lat="45.50732" lon="4.75664">
        <ele>382</ele>
        <time>2014-10-16T13:38:43Z</time>
      </trkpt>
      <trkpt lat="45.50756" lon="4.75674">
        <ele>390</ele>
        <time>2014-10-16T13:39:03Z</time>
      </trkpt>
      <trkpt lat="45.50759" lon="4.75676">
        <ele>386</ele>
        <time>2014-10-16T13:39:07Z</time>
      </trkpt>
      <trkpt lat="45.50766" lon="4.7568">
        <ele>385</ele>
        <time>2014-10-16T13:39:17Z</time>
      </trkpt>
      <trkpt lat="45.50775" lon="4.75681">
        <ele>383</ele>
        <time>2014-10-16T13:39:30Z</time>
      </trkpt>
      <trkpt lat="45.50789" lon="4.75688">
        <ele>383</ele>
        <time>2014-10-16T13:39:47Z</time>
      </trkpt>
      <trkpt lat="45.50791" lon="4.75689">
        <ele>384</ele>
        <time>2014-10-16T13:39:49Z</time>
      </trkpt>
      <trkpt lat="45.50805" lon="4.75692">
        <ele>382</ele>
        <time>2014-10-16T13:40:05Z</time>
      </trkpt>
      <trkpt lat="45.50812" lon="4.75699">
        <ele>383</ele>
        <time>2014-10-16T13:40:14Z</time>
      </trkpt>
      <trkpt lat="45.50831" lon="4.75707">
        <ele>391</ele>
        <time>2014-10-16T13:40:29Z</time>
      </trkpt>
      <trkpt lat="45.50839" lon="4.75711">
        <ele>394</ele>
        <time>2014-10-16T13:40:35Z</time>
      </trkpt>
      <trkpt lat="45.50854" lon="4.75713">
        <ele>391</ele>
        <time>2014-10-16T13:40:47Z</time>
      </trkpt>
      <trkpt lat="45.5086" lon="4.75718">
        <ele>387</ele>
        <time>2014-10-16T13:40:58Z</time>
      </trkpt>
      <trkpt lat="45.50868" lon="4.75726">
        <ele>393</ele>
        <time>2014-10-16T13:41:06Z</time>
      </trkpt>
      <trkpt lat="45.5088" lon="4.7574">
        <ele>392</ele>
        <time>2014-10-16T13:41:19Z</time>
      </trkpt>
      <trkpt lat="45.50891" lon="4.75747">
        <ele>393</ele>
        <time>2014-10-16T13:41:28Z</time>
      </trkpt>
      <trkpt lat="45.50905" lon="4.7576">
        <ele>400</ele>
        <time>2014-10-16T13:41:44Z</time>
      </trkpt>
      <trkpt lat="45.50907" lon="4.75764">
        <ele>396</ele>
        <time>2014-10-16T13:42:00Z</time>
      </trkpt>
      <trkpt lat="45.50907" lon="4.75765">
        <ele>394</ele>
        <time>2014-10-16T13:42:01Z</time>
      </trkpt>
      <trkpt lat="45.50915" lon="4.75773">
        <ele>392</ele>
        <time>2014-10-16T13:42:12Z</time>
      </trkpt>
      <trkpt lat="45.5093" lon="4.75797">
        <ele>398</ele>
        <time>2014-10-16T13:42:31Z</time>
      </trkpt>
      <trkpt lat="45.50934" lon="4.75798">
        <ele>400</ele>
        <time>2014-10-16T13:42:34Z</time>
      </trkpt>
      <trkpt lat="45.50952" lon="4.75811">
        <ele>405</ele>
        <time>2014-10-16T13:42:48Z</time>
      </trkpt>
      <trkpt lat="45.50966" lon="4.75829">
        <ele>411</ele>
        <time>2014-10-16T13:43:01Z</time>
      </trkpt>
      <trkpt lat="45.5097" lon="4.75832">
        <ele>409</ele>
        <time>2014-10-16T13:43:07Z</time>
      </trkpt>
      <trkpt lat="45.50983" lon="4.75853">
        <ele>407</ele>
        <time>2014-10-16T13:43:26Z</time>
      </trkpt>
      <trkpt lat="45.50996" lon="4.75861">
        <ele>406</ele>
        <time>2014-10-16T13:43:37Z</time>
      </trkpt>
      <trkpt lat="45.50998" lon="4.75861">
        <ele>407</ele>
        <time>2014-10-16T13:43:41Z</time>
      </trkpt>
      <trkpt lat="45.51008" lon="4.75887">
        <ele>405</ele>
        <time>2014-10-16T13:43:55Z</time>
      </trkpt>
      <trkpt lat="45.51011" lon="4.75897">
        <ele>407</ele>
        <time>2014-10-16T13:44:04Z</time>
      </trkpt>
      <trkpt lat="45.51024" lon="4.75915">
        <ele>413</ele>
        <time>2014-10-16T13:44:20Z</time>
      </trkpt>
      <trkpt lat="45.51028" lon="4.7592">
        <ele>415</ele>
        <time>2014-10-16T13:44:31Z</time>
      </trkpt>
      <trkpt lat="45.5103" lon="4.75923">
        <ele>417</ele>
        <time>2014-10-16T13:44:35Z</time>
      </trkpt>
      <trkpt lat="45.51036" lon="4.75929">
        <ele>418</ele>
        <time>2014-10-16T13:44:46Z</time>
      </trkpt>
      <trkpt lat="45.51048" lon="4.75953">
        <ele>413</ele>
        <time>2014-10-16T13:45:06Z</time>
      </trkpt>
      <trkpt lat="45.51054" lon="4.7596">
        <ele>411</ele>
        <time>2014-10-16T13:45:15Z</time>
      </trkpt>
      <trkpt lat="45.51053" lon="4.75962">
        <ele>412</ele>
        <time>2014-10-16T13:45:29Z</time>
      </trkpt>
      <trkpt lat="45.51053" lon="4.75962">
        <ele>411</ele>
        <time>2014-10-16T13:45:30Z</time>
      </trkpt>
      <trkpt lat="45.51061" lon="4.75957">
        <ele>414</ele>
        <time>2014-10-16T13:45:41Z</time>
      </trkpt>
      <trkpt lat="45.51067" lon="4.75953">
        <ele>414</ele>
        <time>2014-10-16T13:45:52Z</time>
      </trkpt>
      <trkpt lat="45.5107" lon="4.75955">
        <ele>413</ele>
        <time>2014-10-16T13:46:05Z</time>
      </trkpt>
      <trkpt lat="45.5107" lon="4.75955">
        <ele>413</ele>
        <time>2014-10-16T13:46:16Z</time>
      </trkpt>
      <trkpt lat="45.5107" lon="4.75955">
        <ele>413</ele>
        <time>2014-10-16T13:46:25Z</time>
      </trkpt>
      <trkpt lat="45.5107" lon="4.75955">
        <ele>413</ele>
        <time>2014-10-16T13:46:36Z</time>
      </trkpt>
      <trkpt lat="45.5107" lon="4.75955">
        <ele>413</ele>
        <time>2014-10-16T13:46:51Z</time>
      </trkpt>
      <trkpt lat="45.5107" lon="4.75955">
        <ele>413</ele>
        <time>2014-10-16T13:46:58Z</time>
      </trkpt>
      <trkpt lat="45.5107" lon="4.75956">
        <ele>413</ele>
        <time>2014-10-16T13:47:09Z</time>
      </trkpt>
      <trkpt lat="45.51069" lon="4.75956">
        <ele>411</ele>
        <time>2014-10-16T13:47:22Z</time>
      </trkpt>
      <trkpt lat="45.51071" lon="4.75954">
        <ele>410</ele>
        <time>2014-10-16T13:47:32Z</time>
      </trkpt>
      <trkpt lat="45.5107" lon="4.75955">
        <ele>410</ele>
        <time>2014-10-16T13:47:42Z</time>
      </trkpt>
      <trkpt lat="45.5107" lon="4.75955">
        <ele>410</ele>
        <time>2014-10-16T13:47:53Z</time>
      </trkpt>
      <trkpt lat="45.5107" lon="4.75955">
        <ele>410</ele>
        <time>2014-10-16T13:48:11Z</time>
      </trkpt>
      <trkpt lat="45.5107" lon="4.75955">
        <ele>410</ele>
        <time>2014-10-16T13:48:15Z</time>
      </trkpt>
      <trkpt lat="45.51072" lon="4.75952">
        <ele>408</ele>
        <time>2014-10-16T13:48:35Z</time>
      </trkpt>
      <trkpt lat="45.51073" lon="4.75952">
        <ele>409</ele>
        <time>2014-10-16T13:48:44Z</time>
      </trkpt>
      <trkpt lat="45.51073" lon="4.75952">
        <ele>409</ele>
        <time>2014-10-16T13:48:47Z</time>
      </trkpt>
      <trkpt lat="45.51073" lon="4.75952">
        <ele>409</ele>
        <time>2014-10-16T13:49:01Z</time>
      </trkpt>
      <trkpt lat="45.51076" lon="4.75952">
        <ele>409</ele>
        <time>2014-10-16T13:49:10Z</time>
      </trkpt>
      <trkpt lat="45.51083" lon="4.75936">
        <ele>408</ele>
        <time>2014-10-16T13:49:28Z</time>
      </trkpt>
      <trkpt lat="45.5109" lon="4.7593">
        <ele>408</ele>
        <time>2014-10-16T13:49:40Z</time>
      </trkpt>
      <trkpt lat="45.51091" lon="4.75928">
        <ele>406</ele>
        <time>2014-10-16T13:49:42Z</time>
      </trkpt>
      <trkpt lat="45.51101" lon="4.7591">
        <ele>407</ele>
        <time>2014-10-16T13:50:00Z</time>
      </trkpt>
      <trkpt lat="45.51107" lon="4.75896">
        <ele>412</ele>
        <time>2014-10-16T13:50:10Z</time>
      </trkpt>
      <trkpt lat="45.5111" lon="4.75887">
        <ele>405</ele>
        <time>2014-10-16T13:50:17Z</time>
      </trkpt>
      <trkpt lat="45.51115" lon="4.75875">
        <ele>404</ele>
        <time>2014-10-16T13:50:27Z</time>
      </trkpt>
      <trkpt lat="45.51122" lon="4.75864">
        <ele>399</ele>
        <time>2014-10-16T13:50:37Z</time>
      </trkpt>
      <trkpt lat="45.51133" lon="4.75852">
        <ele>402</ele>
        <time>2014-10-16T13:50:49Z</time>
      </trkpt>
      <trkpt lat="45.51149" lon="4.75843">
        <ele>404</ele>
        <time>2014-10-16T13:51:04Z</time>
      </trkpt>
      <trkpt lat="45.51161" lon="4.7583">
        <ele>405</ele>
        <time>2014-10-16T13:51:19Z</time>
      </trkpt>
      <trkpt lat="45.51167" lon="4.7582">
        <ele>404</ele>
        <time>2014-10-16T13:51:29Z</time>
      </trkpt>
      <trkpt lat="45.51169" lon="4.75815">
        <ele>407</ele>
        <time>2014-10-16T13:51:32Z</time>
      </trkpt>
      <trkpt lat="45.51174" lon="4.75806">
        <ele>403</ele>
        <time>2014-10-16T13:51:43Z</time>
      </trkpt>
      <trkpt lat="45.51181" lon="4.75793">
        <ele>399</ele>
        <time>2014-10-16T13:51:54Z</time>
      </trkpt>
      <trkpt lat="45.51189" lon="4.75779">
        <ele>398</ele>
        <time>2014-10-16T13:52:06Z</time>
      </trkpt>
      <trkpt lat="45.51196" lon="4.75767">
        <ele>404</ele>
        <time>2014-10-16T13:52:16Z</time>
      </trkpt>
      <trkpt lat="45.51206" lon="4.75756">
        <ele>404</ele>
        <time>2014-10-16T13:52:28Z</time>
      </trkpt>
      <trkpt lat="45.51218" lon="4.75745">
        <ele>406</ele>
        <time>2014-10-16T13:52:41Z</time>
      </trkpt>
      <trkpt lat="45.51225" lon="4.7574">
        <ele>409</ele>
        <time>2014-10-16T13:52:49Z</time>
      </trkpt>
      <trkpt lat="45.51226" lon="4.75726">
        <ele>406</ele>
        <time>2014-10-16T13:53:05Z</time>
      </trkpt>
      <trkpt lat="45.51227" lon="4.75723">
        <ele>407</ele>
        <time>2014-10-16T13:53:18Z</time>
      </trkpt>
      <trkpt lat="45.51228" lon="4.75723">
        <ele>407</ele>
        <time>2014-10-16T13:53:22Z</time>
      </trkpt>
      <trkpt lat="45.51234" lon="4.75707">
        <ele>402</ele>
        <time>2014-10-16T13:53:38Z</time>
      </trkpt>
      <trkpt lat="45.51239" lon="4.75696">
        <ele>398</ele>
        <time>2014-10-16T13:53:46Z</time>
      </trkpt>
      <trkpt lat="45.51257" lon="4.75686">
        <ele>397</ele>
        <time>2014-10-16T13:54:01Z</time>
      </trkpt>
      <trkpt lat="45.51262" lon="4.75682">
        <ele>396</ele>
        <time>2014-10-16T13:54:06Z</time>
      </trkpt>
      <trkpt lat="45.51277" lon="4.75662">
        <ele>398</ele>
        <time>2014-10-16T13:54:25Z</time>
      </trkpt>
      <trkpt lat="45.51281" lon="4.75662">
        <ele>396</ele>
        <time>2014-10-16T13:54:28Z</time>
      </trkpt>
      <trkpt lat="45.51289" lon="4.75645">
        <ele>393</ele>
        <time>2014-10-16T13:54:41Z</time>
      </trkpt>
      <trkpt lat="45.51296" lon="4.75636">
        <ele>388</ele>
        <time>2014-10-16T13:54:50Z</time>
      </trkpt>
      <trkpt lat="45.51298" lon="4.75623">
        <ele>391</ele>
        <time>2014-10-16T13:55:01Z</time>
      </trkpt>
      <trkpt lat="45.51317" lon="4.7559">
        <ele>399</ele>
        <time>2014-10-16T13:55:22Z</time>
      </trkpt>
      <trkpt lat="45.51325" lon="4.75582">
        <ele>400</ele>
        <time>2014-10-16T13:55:29Z</time>
      </trkpt>
      <trkpt lat="45.51331" lon="4.75581">
        <ele>397</ele>
        <time>2014-10-16T13:55:34Z</time>
      </trkpt>
      <trkpt lat="45.51334" lon="4.7558">
        <ele>399</ele>
        <time>2014-10-16T13:55:45Z</time>
      </trkpt>
      <trkpt lat="45.51339" lon="4.7558">
        <ele>402</ele>
        <time>2014-10-16T13:55:57Z</time>
      </trkpt>
      <trkpt lat="45.51363" lon="4.75573">
        <ele>387</ele>
        <time>2014-10-16T13:56:11Z</time>
      </trkpt>
      <trkpt lat="45.51374" lon="4.75555">
        <ele>389</ele>
        <time>2014-10-16T13:56:27Z</time>
      </trkpt>
      <trkpt lat="45.51375" lon="4.75556">
        <ele>387</ele>
        <time>2014-10-16T13:56:29Z</time>
      </trkpt>
      <trkpt lat="45.51389" lon="4.75548">
        <ele>392</ele>
        <time>2014-10-16T13:56:41Z</time>
      </trkpt>
      <trkpt lat="45.51405" lon="4.75547">
        <ele>392</ele>
        <time>2014-10-16T13:56:52Z</time>
      </trkpt>
      <trkpt lat="45.51426" lon="4.75541">
        <ele>393</ele>
        <time>2014-10-16T13:57:12Z</time>
      </trkpt>
      <trkpt lat="45.51427" lon="4.75539">
        <ele>391</ele>
        <time>2014-10-16T13:57:14Z</time>
      </trkpt>
      <trkpt lat="45.51434" lon="4.75528">
        <ele>393</ele>
        <time>2014-10-16T13:57:25Z</time>
      </trkpt>
      <trkpt lat="45.51446" lon="4.75511">
        <ele>390</ele>
        <time>2014-10-16T13:57:41Z</time>
      </trkpt>
      <trkpt lat="45.51449" lon="4.75505">
        <ele>389</ele>
        <time>2014-10-16T13:57:46Z</time>
      </trkpt>
      <trkpt lat="45.5146" lon="4.755">
        <ele>389</ele>
        <time>2014-10-16T13:57:57Z</time>
      </trkpt>
      <trkpt lat="45.51468" lon="4.75489">
        <ele>389</ele>
        <time>2014-10-16T13:58:10Z</time>
      </trkpt>
      <trkpt lat="45.51484" lon="4.75479">
        <ele>389</ele>
        <time>2014-10-16T13:58:28Z</time>
      </trkpt>
      <trkpt lat="45.51489" lon="4.75479">
        <ele>386</ele>
        <time>2014-10-16T13:58:33Z</time>
      </trkpt>
      <trkpt lat="45.51499" lon="4.75472">
        <ele>387</ele>
        <time>2014-10-16T13:58:45Z</time>
      </trkpt>
      <trkpt lat="45.51505" lon="4.75466">
        <ele>387</ele>
        <time>2014-10-16T13:58:53Z</time>
      </trkpt>
      <trkpt lat="45.5152" lon="4.7545">
        <ele>391</ele>
        <time>2014-10-16T13:59:12Z</time>
      </trkpt>
      <trkpt lat="45.51527" lon="4.75445">
        <ele>390</ele>
        <time>2014-10-16T13:59:18Z</time>
      </trkpt>
      <trkpt lat="45.51531" lon="4.75443">
        <ele>387</ele>
        <time>2014-10-16T13:59:25Z</time>
      </trkpt>
      <trkpt lat="45.51539" lon="4.75423">
        <ele>400</ele>
        <time>2014-10-16T13:59:37Z</time>
      </trkpt>
      <trkpt lat="45.51558" lon="4.75416">
        <ele>397</ele>
        <time>2014-10-16T13:59:55Z</time>
      </trkpt>
      <trkpt lat="45.51574" lon="4.7541">
        <ele>384</ele>
        <time>2014-10-16T14:00:06Z</time>
      </trkpt>
      <trkpt lat="45.51571" lon="4.754">
        <ele>388</ele>
        <time>2014-10-16T14:00:16Z</time>
      </trkpt>
      <trkpt lat="45.51569" lon="4.75396">
        <ele>390</ele>
        <time>2014-10-16T14:00:28Z</time>
      </trkpt>
      <trkpt lat="45.51569" lon="4.75396">
        <ele>390</ele>
        <time>2014-10-16T14:00:31Z</time>
      </trkpt>
      <trkpt lat="45.51564" lon="4.75389">
        <ele>393</ele>
        <time>2014-10-16T14:00:42Z</time>
      </trkpt>
      <trkpt lat="45.51558" lon="4.75389">
        <ele>392</ele>
        <time>2014-10-16T14:00:55Z</time>
      </trkpt>
      <trkpt lat="45.51554" lon="4.75389">
        <ele>393</ele>
        <time>2014-10-16T14:01:04Z</time>
      </trkpt>
      <trkpt lat="45.51532" lon="4.75385">
        <ele>388</ele>
        <time>2014-10-16T14:01:15Z</time>
      </trkpt>
      <trkpt lat="45.51516" lon="4.75378">
        <ele>390</ele>
        <time>2014-10-16T14:01:30Z</time>
      </trkpt>
      <trkpt lat="45.51507" lon="4.7538">
        <ele>391</ele>
        <time>2014-10-16T14:01:38Z</time>
      </trkpt>
      <trkpt lat="45.51492" lon="4.75375">
        <ele>390</ele>
        <time>2014-10-16T14:01:57Z</time>
      </trkpt>
      <trkpt lat="45.51476" lon="4.75375">
        <ele>393</ele>
        <time>2014-10-16T14:02:09Z</time>
      </trkpt>
      <trkpt lat="45.51475" lon="4.75376">
        <ele>393</ele>
        <time>2014-10-16T14:02:10Z</time>
      </trkpt>
      <trkpt lat="45.51465" lon="4.7538">
        <ele>395</ele>
        <time>2014-10-16T14:02:21Z</time>
      </trkpt>
      <trkpt lat="45.51455" lon="4.75382">
        <ele>403</ele>
        <time>2014-10-16T14:02:33Z</time>
      </trkpt>
      <trkpt lat="45.51446" lon="4.75376">
        <ele>410</ele>
        <time>2014-10-16T14:02:45Z</time>
      </trkpt>
      <trkpt lat="45.5144" lon="4.75361">
        <ele>410</ele>
        <time>2014-10-16T14:02:54Z</time>
      </trkpt>
      <trkpt lat="45.5143" lon="4.75348">
        <ele>405</ele>
        <time>2014-10-16T14:03:05Z</time>
      </trkpt>
      <trkpt lat="45.51416" lon="4.75324">
        <ele>399</ele>
        <time>2014-10-16T14:03:20Z</time>
      </trkpt>
      <trkpt lat="45.51411" lon="4.75332">
        <ele>400</ele>
        <time>2014-10-16T14:03:29Z</time>
      </trkpt>
      <trkpt lat="45.51399" lon="4.75329">
        <ele>403</ele>
        <time>2014-10-16T14:03:41Z</time>
      </trkpt>
      <trkpt lat="45.51381" lon="4.75317">
        <ele>406</ele>
        <time>2014-10-16T14:03:58Z</time>
      </trkpt>
      <trkpt lat="45.51378" lon="4.75316">
        <ele>405</ele>
        <time>2014-10-16T14:04:00Z</time>
      </trkpt>
      <trkpt lat="45.51365" lon="4.75314">
        <ele>411</ele>
        <time>2014-10-16T14:04:15Z</time>
      </trkpt>
      <trkpt lat="45.51357" lon="4.75318">
        <ele>420</ele>
        <time>2014-10-16T14:04:22Z</time>
      </trkpt>
      <trkpt lat="45.51336" lon="4.75304">
        <ele>415</ele>
        <time>2014-10-16T14:04:40Z</time>
      </trkpt>
      <trkpt lat="45.51331" lon="4.75308">
        <ele>412</ele>
        <time>2014-10-16T14:04:44Z</time>
      </trkpt>
      <trkpt lat="45.51322" lon="4.75322">
        <ele>411</ele>
        <time>2014-10-16T14:04:58Z</time>
      </trkpt>
      <trkpt lat="45.51308" lon="4.75307">
        <ele>405</ele>
        <time>2014-10-16T14:05:10Z</time>
      </trkpt>
      <trkpt lat="45.513" lon="4.75304">
        <ele>409</ele>
        <time>2014-10-16T14:05:17Z</time>
      </trkpt>
      <trkpt lat="45.51294" lon="4.75302">
        <ele>405</ele>
        <time>2014-10-16T14:05:28Z</time>
      </trkpt>
      <trkpt lat="45.51281" lon="4.75295">
        <ele>409</ele>
        <time>2014-10-16T14:05:43Z</time>
      </trkpt>
      <trkpt lat="45.51276" lon="4.75281">
        <ele>416</ele>
        <time>2014-10-16T14:05:56Z</time>
      </trkpt>
      <trkpt lat="45.5127" lon="4.75279">
        <ele>416</ele>
        <time>2014-10-16T14:06:02Z</time>
      </trkpt>
      <trkpt lat="45.51252" lon="4.75267">
        <ele>418</ele>
        <time>2014-10-16T14:06:22Z</time>
      </trkpt>
      <trkpt lat="45.51252" lon="4.75259">
        <ele>415</ele>
        <time>2014-10-16T14:06:27Z</time>
      </trkpt>
      <trkpt lat="45.51257" lon="4.75247">
        <ele>409</ele>
        <time>2014-10-16T14:06:37Z</time>
      </trkpt>
      <trkpt lat="45.51258" lon="4.7525">
        <ele>409</ele>
        <time>2014-10-16T14:06:47Z</time>
      </trkpt>
      <trkpt lat="45.51258" lon="4.7525">
        <ele>409</ele>
        <time>2014-10-16T14:06:56Z</time>
      </trkpt>
      <trkpt lat="45.51258" lon="4.7525">
        <ele>409</ele>
        <time>2014-10-16T14:07:07Z</time>
      </trkpt>
      <trkpt lat="45.51257" lon="4.7525">
        <ele>409</ele>
        <time>2014-10-16T14:07:18Z</time>
      </trkpt>
      <trkpt lat="45.51258" lon="4.7525">
        <ele>409</ele>
        <time>2014-10-16T14:07:29Z</time>
      </trkpt>
      <trkpt lat="45.51258" lon="4.7525">
        <ele>409</ele>
        <time>2014-10-16T14:07:47Z</time>
      </trkpt>
      <trkpt lat="45.51258" lon="4.7525">
        <ele>409</ele>
        <time>2014-10-16T14:07:51Z</time>
      </trkpt>
      <trkpt lat="45.51258" lon="4.7525">
        <ele>409</ele>
        <time>2014-10-16T14:08:02Z</time>
      </trkpt>
      <trkpt lat="45.51258" lon="4.7525">
        <ele>409</ele>
        <time>2014-10-16T14:08:13Z</time>
      </trkpt>
      <trkpt lat="45.51258" lon="4.7525">
        <ele>409</ele>
        <time>2014-10-16T14:08:24Z</time>
      </trkpt>
      <trkpt lat="45.51258" lon="4.7525">
        <ele>409</ele>
        <time>2014-10-16T14:08:35Z</time>
      </trkpt>
      <trkpt lat="45.51258" lon="4.7525">
        <ele>409</ele>
        <time>2014-10-16T14:08:46Z</time>
      </trkpt>
      <trkpt lat="45.51259" lon="4.75249">
        <ele>408</ele>
        <time>2014-10-16T14:08:57Z</time>
      </trkpt>
      <trkpt lat="45.51266" lon="4.75239">
        <ele>409</ele>
        <time>2014-10-16T14:09:08Z</time>
      </trkpt>
      <trkpt lat="45.51277" lon="4.75236">
        <ele>412</ele>
        <time>2014-10-16T14:09:24Z</time>
      </trkpt>
      <trkpt lat="45.5128" lon="4.75232">
        <ele>413</ele>
        <time>2014-10-16T14:09:30Z</time>
      </trkpt>
      <trkpt lat="45.51294" lon="4.75221">
        <ele>416</ele>
        <time>2014-10-16T14:09:49Z</time>
      </trkpt>
      <trkpt lat="45.51298" lon="4.75218">
        <ele>412</ele>
        <time>2014-10-16T14:09:56Z</time>
      </trkpt>
      <trkpt lat="45.51302" lon="4.75216">
        <ele>410</ele>
        <time>2014-10-16T14:10:03Z</time>
      </trkpt>
      <trkpt lat="45.51309" lon="4.75204">
        <ele>413</ele>
        <time>2014-10-16T14:10:24Z</time>
      </trkpt>
      <trkpt lat="45.51308" lon="4.75204">
        <ele>413</ele>
        <time>2014-10-16T14:10:25Z</time>
      </trkpt>
      <trkpt lat="45.51309" lon="4.75202">
        <ele>414</ele>
        <time>2014-10-16T14:10:36Z</time>
      </trkpt>
      <trkpt lat="45.51308" lon="4.75203">
        <ele>412</ele>
        <time>2014-10-16T14:10:49Z</time>
      </trkpt>
      <trkpt lat="45.51308" lon="4.752">
        <ele>413</ele>
        <time>2014-10-16T14:10:58Z</time>
      </trkpt>
      <trkpt lat="45.51309" lon="4.75199">
        <ele>413</ele>
        <time>2014-10-16T14:11:09Z</time>
      </trkpt>
      <trkpt lat="45.51314" lon="4.75192">
        <ele>414</ele>
        <time>2014-10-16T14:11:20Z</time>
      </trkpt>
      <trkpt lat="45.51325" lon="4.75183">
        <ele>414</ele>
        <time>2014-10-16T14:11:35Z</time>
      </trkpt>
      <trkpt lat="45.51336" lon="4.75172">
        <ele>419</ele>
        <time>2014-10-16T14:11:43Z</time>
      </trkpt>
      <trkpt lat="45.51351" lon="4.75164">
        <ele>418</ele>
        <time>2014-10-16T14:11:58Z</time>
      </trkpt>
      <trkpt lat="45.51354" lon="4.75162">
        <ele>419</ele>
        <time>2014-10-16T14:12:05Z</time>
      </trkpt>
      <trkpt lat="45.51365" lon="4.7516">
        <ele>418</ele>
        <time>2014-10-16T14:12:20Z</time>
      </trkpt>
      <trkpt lat="45.51368" lon="4.75157">
        <ele>419</ele>
        <time>2014-10-16T14:12:26Z</time>
      </trkpt>
      <trkpt lat="45.5138" lon="4.75148">
        <ele>423</ele>
        <time>2014-10-16T14:12:39Z</time>
      </trkpt>
      <trkpt lat="45.51387" lon="4.75129">
        <ele>432</ele>
        <time>2014-10-16T14:12:58Z</time>
      </trkpt>
      <trkpt lat="45.51387" lon="4.75126">
        <ele>432</ele>
        <time>2014-10-16T14:12:59Z</time>
      </trkpt>
      <trkpt lat="45.51389" lon="4.75121">
        <ele>428</ele>
        <time>2014-10-16T14:13:14Z</time>
      </trkpt>
      <trkpt lat="45.51399" lon="4.75117">
        <ele>431</ele>
        <time>2014-10-16T14:13:23Z</time>
      </trkpt>
      <trkpt lat="45.51412" lon="4.75111">
        <ele>434</ele>
        <time>2014-10-16T14:13:32Z</time>
      </trkpt>
      <trkpt lat="45.51417" lon="4.7509">
        <ele>442</ele>
        <time>2014-10-16T14:13:53Z</time>
      </trkpt>
      <trkpt lat="45.51418" lon="4.75088">
        <ele>439</ele>
        <time>2014-10-16T14:14:04Z</time>
      </trkpt>
      <trkpt lat="45.51418" lon="4.75088">
        <ele>439</ele>
        <time>2014-10-16T14:14:05Z</time>
      </trkpt>
      <trkpt lat="45.51437" lon="4.75051">
        <ele>444</ele>
        <time>2014-10-16T14:14:25Z</time>
      </trkpt>
      <trkpt lat="45.51439" lon="4.75048">
        <ele>452</ele>
        <time>2014-10-16T14:14:27Z</time>
      </trkpt>
      <trkpt lat="45.51453" lon="4.75042">
        <ele>466</ele>
        <time>2014-10-16T14:14:38Z</time>
      </trkpt>
      <trkpt lat="45.51464" lon="4.75034">
        <ele>489</ele>
        <time>2014-10-16T14:14:49Z</time>
      </trkpt>
      <trkpt lat="45.51474" lon="4.75014">
        <ele>468</ele>
        <time>2014-10-16T14:15:06Z</time>
      </trkpt>
      <trkpt lat="45.5149" lon="4.75014">
        <ele>462</ele>
        <time>2014-10-16T14:15:17Z</time>
      </trkpt>
      <trkpt lat="45.51493" lon="4.7501">
        <ele>445</ele>
        <time>2014-10-16T14:15:32Z</time>
      </trkpt>
      <trkpt lat="45.51496" lon="4.75009">
        <ele>441</ele>
        <time>2014-10-16T14:15:35Z</time>
      </trkpt>
      <trkpt lat="45.51503" lon="4.74997">
        <ele>445</ele>
        <time>2014-10-16T14:15:44Z</time>
      </trkpt>
      <trkpt lat="45.51511" lon="4.7499">
        <ele>457</ele>
        <time>2014-10-16T14:15:56Z</time>
      </trkpt>
      <trkpt lat="45.51525" lon="4.74977">
        <ele>451</ele>
        <time>2014-10-16T14:16:12Z</time>
      </trkpt>
      <trkpt lat="45.51535" lon="4.74964">
        <ele>445</ele>
        <time>2014-10-16T14:16:24Z</time>
      </trkpt>
      <trkpt lat="45.51535" lon="4.74953">
        <ele>452</ele>
        <time>2014-10-16T14:16:31Z</time>
      </trkpt>
      <trkpt lat="45.51544" lon="4.74952">
        <ele>453</ele>
        <time>2014-10-16T14:16:39Z</time>
      </trkpt>
      <trkpt lat="45.51564" lon="4.74925">
        <ele>437</ele>
        <time>2014-10-16T14:17:00Z</time>
      </trkpt>
      <trkpt lat="45.51565" lon="4.74925">
        <ele>437</ele>
        <time>2014-10-16T14:17:01Z</time>
      </trkpt>
      <trkpt lat="45.5157" lon="4.7492">
        <ele>441</ele>
        <time>2014-10-16T14:17:12Z</time>
      </trkpt>
      <trkpt lat="45.51582" lon="4.74917">
        <ele>445</ele>
        <time>2014-10-16T14:17:23Z</time>
      </trkpt>
      <trkpt lat="45.51595" lon="4.74904">
        <ele>450</ele>
        <time>2014-10-16T14:17:34Z</time>
      </trkpt>
      <trkpt lat="45.51599" lon="4.74895">
        <ele>446</ele>
        <time>2014-10-16T14:17:45Z</time>
      </trkpt>
      <trkpt lat="45.51608" lon="4.74883">
        <ele>440</ele>
        <time>2014-10-16T14:17:56Z</time>
      </trkpt>
      <trkpt lat="45.5163" lon="4.74882">
        <ele>451</ele>
        <time>2014-10-16T14:18:17Z</time>
      </trkpt>
      <trkpt lat="45.51639" lon="4.74877">
        <ele>449</ele>
        <time>2014-10-16T14:18:27Z</time>
      </trkpt>
      <trkpt lat="45.51639" lon="4.74874">
        <ele>448</ele>
        <time>2014-10-16T14:18:29Z</time>
      </trkpt>
      <trkpt lat="45.51643" lon="4.74858">
        <ele>452</ele>
        <time>2014-10-16T14:18:40Z</time>
      </trkpt>
      <trkpt lat="45.51659" lon="4.74846">
        <ele>442</ele>
        <time>2014-10-16T14:18:57Z</time>
      </trkpt>
      <trkpt lat="45.51663" lon="4.74838">
        <ele>450</ele>
        <time>2014-10-16T14:19:02Z</time>
      </trkpt>
      <trkpt lat="45.5166" lon="4.74819">
        <ele>450</ele>
        <time>2014-10-16T14:19:16Z</time>
      </trkpt>
      <trkpt lat="45.51665" lon="4.74808">
        <ele>449</ele>
        <time>2014-10-16T14:19:24Z</time>
      </trkpt>
      <trkpt lat="45.5167" lon="4.74797">
        <ele>453</ele>
        <time>2014-10-16T14:19:35Z</time>
      </trkpt>
      <trkpt lat="45.51672" lon="4.74784">
        <ele>451</ele>
        <time>2014-10-16T14:19:46Z</time>
      </trkpt>
      <trkpt lat="45.51685" lon="4.74758">
        <ele>445</ele>
        <time>2014-10-16T14:20:07Z</time>
      </trkpt>
      <trkpt lat="45.51683" lon="4.7475">
        <ele>446</ele>
        <time>2014-10-16T14:20:10Z</time>
      </trkpt>
      <trkpt lat="45.51689" lon="4.74733">
        <ele>455</ele>
        <time>2014-10-16T14:20:22Z</time>
      </trkpt>
      <trkpt lat="45.51679" lon="4.74707">
        <ele>457</ele>
        <time>2014-10-16T14:20:35Z</time>
      </trkpt>
      <trkpt lat="45.51686" lon="4.74701">
        <ele>461</ele>
        <time>2014-10-16T14:20:45Z</time>
      </trkpt>
      <trkpt lat="45.51686" lon="4.74679">
        <ele>453</ele>
        <time>2014-10-16T14:20:58Z</time>
      </trkpt>
      <trkpt lat="45.51688" lon="4.74676">
        <ele>455</ele>
        <time>2014-10-16T14:21:03Z</time>
      </trkpt>
      <trkpt lat="45.51679" lon="4.74652">
        <ele>464</ele>
        <time>2014-10-16T14:21:22Z</time>
      </trkpt>
      <trkpt lat="45.51678" lon="4.74644">
        <ele>465</ele>
        <time>2014-10-16T14:21:26Z</time>
      </trkpt>
      <trkpt lat="45.51674" lon="4.74629">
        <ele>467</ele>
        <time>2014-10-16T14:21:36Z</time>
      </trkpt>
      <trkpt lat="45.51683" lon="4.7461">
        <ele>466</ele>
        <time>2014-10-16T14:21:49Z</time>
      </trkpt>
      <trkpt lat="45.51682" lon="4.74605">
        <ele>468</ele>
        <time>2014-10-16T14:21:58Z</time>
      </trkpt>
      <trkpt lat="45.51681" lon="4.74597">
        <ele>474</ele>
        <time>2014-10-16T14:22:08Z</time>
      </trkpt>
      <trkpt lat="45.51684" lon="4.74575">
        <ele>474</ele>
        <time>2014-10-16T14:22:22Z</time>
      </trkpt>
      <trkpt lat="45.51684" lon="4.74565">
        <ele>478</ele>
        <time>2014-10-16T14:22:34Z</time>
      </trkpt>
      <trkpt lat="45.51684" lon="4.74571">
        <ele>476</ele>
        <time>2014-10-16T14:22:47Z</time>
      </trkpt>
      <trkpt lat="45.51683" lon="4.74571">
        <ele>476</ele>
        <time>2014-10-16T14:22:58Z</time>
      </trkpt>
      <trkpt lat="45.51683" lon="4.74564">
        <ele>480</ele>
        <time>2014-10-16T14:23:03Z</time>
      </trkpt>
      <trkpt lat="45.51695" lon="4.74546">
        <ele>492</ele>
        <time>2014-10-16T14:23:20Z</time>
      </trkpt>
      <trkpt lat="45.517" lon="4.74545">
        <ele>492</ele>
        <time>2014-10-16T14:23:25Z</time>
      </trkpt>
      <trkpt lat="45.51695" lon="4.74518">
        <ele>483</ele>
        <time>2014-10-16T14:23:38Z</time>
      </trkpt>
      <trkpt lat="45.51695" lon="4.74517">
        <ele>485</ele>
        <time>2014-10-16T14:23:54Z</time>
      </trkpt>
      <trkpt lat="45.51694" lon="4.74517">
        <ele>485</ele>
        <time>2014-10-16T14:23:58Z</time>
      </trkpt>
      <trkpt lat="45.51695" lon="4.74517">
        <ele>484</ele>
        <time>2014-10-16T14:24:15Z</time>
      </trkpt>
      <trkpt lat="45.51695" lon="4.74517">
        <ele>484</ele>
        <time>2014-10-16T14:24:20Z</time>
      </trkpt>
      <trkpt lat="45.51695" lon="4.74517">
        <ele>484</ele>
        <time>2014-10-16T14:24:36Z</time>
      </trkpt>
      <trkpt lat="45.51695" lon="4.74517">
        <ele>484</ele>
        <time>2014-10-16T14:24:42Z</time>
      </trkpt>
      <trkpt lat="45.51695" lon="4.74516">
        <ele>484</ele>
        <time>2014-10-16T14:24:54Z</time>
      </trkpt>
      <trkpt lat="45.51704" lon="4.74515">
        <ele>482</ele>
        <time>2014-10-16T14:25:08Z</time>
      </trkpt>
      <trkpt lat="45.51705" lon="4.74515">
        <ele>483</ele>
        <time>2014-10-16T14:25:17Z</time>
      </trkpt>
      <trkpt lat="45.51712" lon="4.74505">
        <ele>480</ele>
        <time>2014-10-16T14:25:27Z</time>
      </trkpt>
      <trkpt lat="45.51719" lon="4.74496">
        <ele>479</ele>
        <time>2014-10-16T14:25:37Z</time>
      </trkpt>
      <trkpt lat="45.51724" lon="4.74483">
        <ele>478</ele>
        <time>2014-10-16T14:25:48Z</time>
      </trkpt>
      <trkpt lat="45.51725" lon="4.74482">
        <ele>478</ele>
        <time>2014-10-16T14:25:59Z</time>
      </trkpt>
      <trkpt lat="45.51726" lon="4.7448">
        <ele>479</ele>
        <time>2014-10-16T14:26:10Z</time>
      </trkpt>
      <trkpt lat="45.51728" lon="4.74476">
        <ele>479</ele>
        <time>2014-10-16T14:26:21Z</time>
      </trkpt>
      <trkpt lat="45.51729" lon="4.74475">
        <ele>480</ele>
        <time>2014-10-16T14:26:32Z</time>
      </trkpt>
      <trkpt lat="45.51732" lon="4.74468">
        <ele>479</ele>
        <time>2014-10-16T14:26:43Z</time>
      </trkpt>
      <trkpt lat="45.51735" lon="4.74464">
        <ele>479</ele>
        <time>2014-10-16T14:26:54Z</time>
      </trkpt>
      <trkpt lat="45.51735" lon="4.74463">
        <ele>480</ele>
        <time>2014-10-16T14:27:06Z</time>
      </trkpt>
      <trkpt lat="45.51736" lon="4.74461">
        <ele>481</ele>
        <time>2014-10-16T14:27:16Z</time>
      </trkpt>
      <trkpt lat="45.51737" lon="4.74457">
        <ele>480</ele>
        <time>2014-10-16T14:27:27Z</time>
      </trkpt>
      <trkpt lat="45.51753" lon="4.74439">
        <ele>479</ele>
        <time>2014-10-16T14:27:46Z</time>
      </trkpt>
      <trkpt lat="45.51756" lon="4.74436">
        <ele>479</ele>
        <time>2014-10-16T14:27:50Z</time>
      </trkpt>
      <trkpt lat="45.51765" lon="4.74431">
        <ele>479</ele>
        <time>2014-10-16T14:28:05Z</time>
      </trkpt>
      <trkpt lat="45.51771" lon="4.74432">
        <ele>477</ele>
        <time>2014-10-16T14:28:15Z</time>
      </trkpt>
      <trkpt lat="45.51779" lon="4.74433">
        <ele>478</ele>
        <time>2014-10-16T14:28:24Z</time>
      </trkpt>
      <trkpt lat="45.51787" lon="4.74434">
        <ele>478</ele>
        <time>2014-10-16T14:28:33Z</time>
      </trkpt>
      <trkpt lat="45.51812" lon="4.74426">
        <ele>481</ele>
        <time>2014-10-16T14:28:54Z</time>
      </trkpt>
      <trkpt lat="45.51813" lon="4.74424">
        <ele>480</ele>
        <time>2014-10-16T14:28:55Z</time>
      </trkpt>
      <trkpt lat="45.51826" lon="4.74418">
        <ele>481</ele>
        <time>2014-10-16T14:29:07Z</time>
      </trkpt>
      <trkpt lat="45.5184" lon="4.74393">
        <ele>484</ele>
        <time>2014-10-16T14:29:27Z</time>
      </trkpt>
      <trkpt lat="45.51841" lon="4.74384">
        <ele>484</ele>
        <time>2014-10-16T14:29:35Z</time>
      </trkpt>
      <trkpt lat="45.51841" lon="4.74382">
        <ele>485</ele>
        <time>2014-10-16T14:29:39Z</time>
      </trkpt>
      <trkpt lat="45.51846" lon="4.74377">
        <ele>482</ele>
        <time>2014-10-16T14:29:50Z</time>
      </trkpt>
      <trkpt lat="45.51855" lon="4.74363">
        <ele>489</ele>
        <time>2014-10-16T14:30:01Z</time>
      </trkpt>
      <trkpt lat="45.51864" lon="4.74344">
        <ele>482</ele>
        <time>2014-10-16T14:30:20Z</time>
      </trkpt>
      <trkpt lat="45.51865" lon="4.74342">
        <ele>482</ele>
        <time>2014-10-16T14:30:23Z</time>
      </trkpt>
      <trkpt lat="45.51868" lon="4.74342">
        <ele>481</ele>
        <time>2014-10-16T14:30:34Z</time>
      </trkpt>
      <trkpt lat="45.51901" lon="4.74352">
        <ele>486</ele>
        <time>2014-10-16T14:30:52Z</time>
      </trkpt>
      <trkpt lat="45.51904" lon="4.74357">
        <ele>489</ele>
        <time>2014-10-16T14:30:58Z</time>
      </trkpt>
      <trkpt lat="45.51916" lon="4.74353">
        <ele>491</ele>
        <time>2014-10-16T14:31:12Z</time>
      </trkpt>
      <trkpt lat="45.5192" lon="4.7435">
        <ele>491</ele>
        <time>2014-10-16T14:31:21Z</time>
      </trkpt>
      <trkpt lat="45.51935" lon="4.7434">
        <ele>492</ele>
        <time>2014-10-16T14:31:32Z</time>
      </trkpt>
      <trkpt lat="45.51944" lon="4.74337">
        <ele>494</ele>
        <time>2014-10-16T14:31:47Z</time>
      </trkpt>
      <trkpt lat="45.51966" lon="4.74332">
        <ele>489</ele>
        <time>2014-10-16T14:32:00Z</time>
      </trkpt>
      <trkpt lat="45.51977" lon="4.74333">
        <ele>494</ele>
        <time>2014-10-16T14:32:08Z</time>
      </trkpt>
      <trkpt lat="45.51981" lon="4.74333">
        <ele>494</ele>
        <time>2014-10-16T14:32:13Z</time>
      </trkpt>
      <trkpt lat="45.51992" lon="4.74333">
        <ele>497</ele>
        <time>2014-10-16T14:32:24Z</time>
      </trkpt>
      <trkpt lat="45.52003" lon="4.74329">
        <ele>497</ele>
        <time>2014-10-16T14:32:35Z</time>
      </trkpt>
      <trkpt lat="45.52013" lon="4.74329">
        <ele>496</ele>
        <time>2014-10-16T14:32:46Z</time>
      </trkpt>
      <trkpt lat="45.52023" lon="4.74332">
        <ele>499</ele>
        <time>2014-10-16T14:32:58Z</time>
      </trkpt>
      <trkpt lat="45.52033" lon="4.74332">
        <ele>499</ele>
        <time>2014-10-16T14:33:08Z</time>
      </trkpt>
      <trkpt lat="45.52047" lon="4.74334">
        <ele>502</ele>
        <time>2014-10-16T14:33:26Z</time>
      </trkpt>
      <trkpt lat="45.5206" lon="4.74336">
        <ele>500</ele>
        <time>2014-10-16T14:33:36Z</time>
      </trkpt>
      <trkpt lat="45.52066" lon="4.74336">
        <ele>501</ele>
        <time>2014-10-16T14:33:41Z</time>
      </trkpt>
      <trkpt lat="45.52083" lon="4.7434">
        <ele>497</ele>
        <time>2014-10-16T14:33:56Z</time>
      </trkpt>
      <trkpt lat="45.52096" lon="4.74342">
        <ele>501</ele>
        <time>2014-10-16T14:34:09Z</time>
      </trkpt>
      <trkpt lat="45.52101" lon="4.74343">
        <ele>502</ele>
        <time>2014-10-16T14:34:14Z</time>
      </trkpt>
      <trkpt lat="45.52111" lon="4.74345">
        <ele>504</ele>
        <time>2014-10-16T14:34:25Z</time>
      </trkpt>
      <trkpt lat="45.52121" lon="4.74347">
        <ele>504</ele>
        <time>2014-10-16T14:34:36Z</time>
      </trkpt>
      <trkpt lat="45.52132" lon="4.74348">
        <ele>505</ele>
        <time>2014-10-16T14:34:47Z</time>
      </trkpt>
      <trkpt lat="45.52142" lon="4.74353">
        <ele>505</ele>
        <time>2014-10-16T14:34:58Z</time>
      </trkpt>
      <trkpt lat="45.52163" lon="4.74353">
        <ele>509</ele>
        <time>2014-10-16T14:35:19Z</time>
      </trkpt>
      <trkpt lat="45.52164" lon="4.74353">
        <ele>509</ele>
        <time>2014-10-16T14:35:20Z</time>
      </trkpt>
      <trkpt lat="45.52169" lon="4.74362">
        <ele>510</ele>
        <time>2014-10-16T14:35:31Z</time>
      </trkpt>
      <trkpt lat="45.52179" lon="4.74366">
        <ele>509</ele>
        <time>2014-10-16T14:35:42Z</time>
      </trkpt>
      <trkpt lat="45.52188" lon="4.74367">
        <ele>509</ele>
        <time>2014-10-16T14:35:53Z</time>
      </trkpt>
      <trkpt lat="45.52197" lon="4.74371">
        <ele>509</ele>
        <time>2014-10-16T14:36:05Z</time>
      </trkpt>
      <trkpt lat="45.52206" lon="4.74376">
        <ele>509</ele>
        <time>2014-10-16T14:36:15Z</time>
      </trkpt>
      <trkpt lat="45.52214" lon="4.74378">
        <ele>509</ele>
        <time>2014-10-16T14:36:26Z</time>
      </trkpt>
      <trkpt lat="45.52216" lon="4.7438">
        <ele>509</ele>
        <time>2014-10-16T14:36:38Z</time>
      </trkpt>
      <trkpt lat="45.52216" lon="4.7438">
        <ele>509</ele>
        <time>2014-10-16T14:36:48Z</time>
      </trkpt>
    </trkseg>
  </trk>
</gpx>